<?xml version="1.0" encoding="UTF-8"?><gpx xmlns="http://www.topografix.com/GPX/1/1" version="1.1" creator="iOrient"><trk><name>Экскурсионный рогейн - Чаи гонять</name><trkseg><trkpt lat="55.7819951" lon="37.7674459"><time>2020-12-20T07:56:09.357</time></trkpt><trkpt lat="55.7819891" lon="37.7673021"><time>2020-12-20T07:56:10.353</time></trkpt><trkpt lat="55.7818900" lon="37.7672569"><time>2020-12-20T07:56:11.350</time></trkpt><trkpt lat="55.7819930" lon="37.7673553"><time>2020-12-20T07:56:12.353</time></trkpt><trkpt lat="55.7819889" lon="37.7672408"><time>2020-12-20T07:56:12.650</time></trkpt><trkpt lat="55.7819307" lon="37.7673133"><time>2020-12-20T07:56:14.357</time></trkpt><trkpt lat="55.7818648" lon="37.7673329"><time>2020-12-20T07:56:16.350</time></trkpt><trkpt lat="55.7818145" lon="37.7672943"><time>2020-12-20T07:57:00.383</time></trkpt><trkpt lat="55.7817839" lon="37.7672353"><time>2020-12-20T07:57:04.377</time></trkpt><trkpt lat="55.7817366" lon="37.7672060"><time>2020-12-20T07:57:12.380</time></trkpt><trkpt lat="55.7816896" lon="37.7672510"><time>2020-12-20T07:57:16.377</time></trkpt><trkpt lat="55.7816509" lon="37.7673293"><time>2020-12-20T07:57:21.397</time></trkpt><trkpt lat="55.7816040" lon="37.7673929"><time>2020-12-20T07:57:24.407</time></trkpt><trkpt lat="55.7815451" lon="37.7674143"><time>2020-12-20T07:57:27.397</time></trkpt><trkpt lat="55.7814805" lon="37.7674514"><time>2020-12-20T07:57:29.393</time></trkpt><trkpt lat="55.7814299" lon="37.7674768"><time>2020-12-20T07:57:30.397</time></trkpt><trkpt lat="55.7813631" lon="37.7675082"><time>2020-12-20T07:57:32.390</time></trkpt><trkpt lat="55.7812996" lon="37.7675321"><time>2020-12-20T07:57:34.387</time></trkpt><trkpt lat="55.7812335" lon="37.7675705"><time>2020-12-20T07:57:36.390</time></trkpt><trkpt lat="55.7811615" lon="37.7676151"><time>2020-12-20T07:57:38.377</time></trkpt><trkpt lat="55.7810824" lon="37.7676728"><time>2020-12-20T07:57:40.393</time></trkpt><trkpt lat="55.7810380" lon="37.7677240"><time>2020-12-20T07:57:41.387</time></trkpt><trkpt lat="55.7809826" lon="37.7677998"><time>2020-12-20T07:57:42.380</time></trkpt><trkpt lat="55.7809269" lon="37.7678349"><time>2020-12-20T07:57:43.407</time></trkpt><trkpt lat="55.7808817" lon="37.7678923"><time>2020-12-20T07:57:44.370</time></trkpt><trkpt lat="55.7808379" lon="37.7679599"><time>2020-12-20T07:57:45.377</time></trkpt><trkpt lat="55.7807972" lon="37.7680281"><time>2020-12-20T07:57:46.390</time></trkpt><trkpt lat="55.7807587" lon="37.7681009"><time>2020-12-20T07:57:47.400</time></trkpt><trkpt lat="55.7807297" lon="37.7681785"><time>2020-12-20T07:57:48.397</time></trkpt><trkpt lat="55.7807013" lon="37.7682522"><time>2020-12-20T07:57:49.397</time></trkpt><trkpt lat="55.7806736" lon="37.7683312"><time>2020-12-20T07:57:50.393</time></trkpt><trkpt lat="55.7806456" lon="37.7684061"><time>2020-12-20T07:57:51.390</time></trkpt><trkpt lat="55.7806319" lon="37.7684847"><time>2020-12-20T07:57:52.400</time></trkpt><trkpt lat="55.7806246" lon="37.7685643"><time>2020-12-20T07:57:53.373</time></trkpt><trkpt lat="55.7806103" lon="37.7687205"><time>2020-12-20T07:57:55.400</time></trkpt><trkpt lat="55.7805762" lon="37.7688383"><time>2020-12-20T07:57:57.353</time></trkpt><trkpt lat="55.7805035" lon="37.7689064"><time>2020-12-20T07:57:59.390</time></trkpt><trkpt lat="55.7804320" lon="37.7689525"><time>2020-12-20T07:58:01.423</time></trkpt><trkpt lat="55.7803801" lon="37.7689658"><time>2020-12-20T07:58:02.380</time></trkpt><trkpt lat="55.7803296" lon="37.7689850"><time>2020-12-20T07:58:03.413</time></trkpt><trkpt lat="55.7802562" lon="37.7689975"><time>2020-12-20T07:58:05.380</time></trkpt><trkpt lat="55.7801785" lon="37.7690288"><time>2020-12-20T07:58:07.433</time></trkpt><trkpt lat="55.7801092" lon="37.7690713"><time>2020-12-20T07:58:09.387</time></trkpt><trkpt lat="55.7800480" lon="37.7691218"><time>2020-12-20T07:58:11.393</time></trkpt><trkpt lat="55.7799922" lon="37.7691736"><time>2020-12-20T07:58:13.387</time></trkpt><trkpt lat="55.7799438" lon="37.7692425"><time>2020-12-20T07:58:15.417</time></trkpt><trkpt lat="55.7798974" lon="37.7692961"><time>2020-12-20T07:58:18.380</time></trkpt><trkpt lat="55.7798527" lon="37.7695116"><time>2020-12-20T07:58:31.117</time></trkpt><trkpt lat="55.7798480" lon="37.7694323"><time>2020-12-20T07:58:34.343</time></trkpt><trkpt lat="55.7798097" lon="37.7693693"><time>2020-12-20T07:58:49.390</time></trkpt><trkpt lat="55.7797859" lon="37.7692978"><time>2020-12-20T07:58:51.383</time></trkpt><trkpt lat="55.7797495" lon="37.7692408"><time>2020-12-20T07:58:53.387</time></trkpt><trkpt lat="55.7797217" lon="37.7691709"><time>2020-12-20T07:58:55.397</time></trkpt><trkpt lat="55.7796861" lon="37.7690898"><time>2020-12-20T07:58:59.390</time></trkpt><trkpt lat="55.7793758" lon="37.7686313"><time>2020-12-20T07:59:38.810</time></trkpt><trkpt lat="55.7794299" lon="37.7686005"><time>2020-12-20T07:59:58.373</time></trkpt><trkpt lat="55.7794709" lon="37.7686606"><time>2020-12-20T08:00:04.377</time></trkpt><trkpt lat="55.7794886" lon="37.7687350"><time>2020-12-20T08:00:07.387</time></trkpt><trkpt lat="55.7795201" lon="37.7687995"><time>2020-12-20T08:00:18.370</time></trkpt><trkpt lat="55.7795637" lon="37.7688466"><time>2020-12-20T08:00:34.390</time></trkpt><trkpt lat="55.7796048" lon="37.7689004"><time>2020-12-20T08:00:37.387</time></trkpt><trkpt lat="55.7796564" lon="37.7689480"><time>2020-12-20T08:00:41.413</time></trkpt><trkpt lat="55.7796991" lon="37.7690172"><time>2020-12-20T08:00:44.420</time></trkpt><trkpt lat="55.7797219" lon="37.7691089"><time>2020-12-20T08:00:47.397</time></trkpt><trkpt lat="55.7797654" lon="37.7691936"><time>2020-12-20T08:00:50.387</time></trkpt><trkpt lat="55.7797912" lon="37.7692874"><time>2020-12-20T08:00:52.387</time></trkpt><trkpt lat="55.7798270" lon="37.7693972"><time>2020-12-20T08:00:54.397</time></trkpt><trkpt lat="55.7798616" lon="37.7694953"><time>2020-12-20T08:00:56.387</time></trkpt><trkpt lat="55.7798580" lon="37.7695958"><time>2020-12-20T08:00:58.397</time></trkpt><trkpt lat="55.7798584" lon="37.7697166"><time>2020-12-20T08:01:00.380</time></trkpt><trkpt lat="55.7798662" lon="37.7698539"><time>2020-12-20T08:01:02.383</time></trkpt><trkpt lat="55.7798800" lon="37.7700142"><time>2020-12-20T08:01:04.397</time></trkpt><trkpt lat="55.7798769" lon="37.7701050"><time>2020-12-20T08:01:05.413</time></trkpt><trkpt lat="55.7798705" lon="37.7702521"><time>2020-12-20T08:01:07.407</time></trkpt><trkpt lat="55.7798441" lon="37.7703843"><time>2020-12-20T08:01:09.390</time></trkpt><trkpt lat="55.7798198" lon="37.7704959"><time>2020-12-20T08:01:11.407</time></trkpt><trkpt lat="55.7797538" lon="37.7705811"><time>2020-12-20T08:01:13.377</time></trkpt><trkpt lat="55.7797161" lon="37.7706313"><time>2020-12-20T08:01:14.390</time></trkpt><trkpt lat="55.7796510" lon="37.7707197"><time>2020-12-20T08:01:16.407</time></trkpt><trkpt lat="55.7795922" lon="37.7707840"><time>2020-12-20T08:01:18.400</time></trkpt><trkpt lat="55.7795348" lon="37.7708081"><time>2020-12-20T08:01:20.370</time></trkpt><trkpt lat="55.7794594" lon="37.7708294"><time>2020-12-20T08:01:22.413</time></trkpt><trkpt lat="55.7793921" lon="37.7708427"><time>2020-12-20T08:01:24.380</time></trkpt><trkpt lat="55.7793319" lon="37.7708450"><time>2020-12-20T08:01:26.407</time></trkpt><trkpt lat="55.7792644" lon="37.7708356"><time>2020-12-20T08:01:28.393</time></trkpt><trkpt lat="55.7791923" lon="37.7708321"><time>2020-12-20T08:01:30.390</time></trkpt><trkpt lat="55.7791285" lon="37.7708476"><time>2020-12-20T08:01:32.373</time></trkpt><trkpt lat="55.7790648" lon="37.7708611"><time>2020-12-20T08:01:34.397</time></trkpt><trkpt lat="55.7790066" lon="37.7708686"><time>2020-12-20T08:01:36.393</time></trkpt><trkpt lat="55.7789380" lon="37.7708873"><time>2020-12-20T08:01:38.407</time></trkpt><trkpt lat="55.7788603" lon="37.7709088"><time>2020-12-20T08:01:40.423</time></trkpt><trkpt lat="55.7787885" lon="37.7709225"><time>2020-12-20T08:01:42.397</time></trkpt><trkpt lat="55.7787079" lon="37.7709403"><time>2020-12-20T08:01:44.387</time></trkpt><trkpt lat="55.7786627" lon="37.7709471"><time>2020-12-20T08:01:45.377</time></trkpt><trkpt lat="55.7786154" lon="37.7709515"><time>2020-12-20T08:01:46.373</time></trkpt><trkpt lat="55.7785521" lon="37.7709680"><time>2020-12-20T08:01:47.383</time></trkpt><trkpt lat="55.7784635" lon="37.7709724"><time>2020-12-20T08:01:49.370</time></trkpt><trkpt lat="55.7783771" lon="37.7709663"><time>2020-12-20T08:01:51.393</time></trkpt><trkpt lat="55.7782999" lon="37.7709766"><time>2020-12-20T08:01:53.403</time></trkpt><trkpt lat="55.7782217" lon="37.7709796"><time>2020-12-20T08:01:55.440</time></trkpt><trkpt lat="55.7781375" lon="37.7709851"><time>2020-12-20T08:01:57.387</time></trkpt><trkpt lat="55.7780519" lon="37.7709877"><time>2020-12-20T08:01:59.430</time></trkpt><trkpt lat="55.7780039" lon="37.7709924"><time>2020-12-20T08:02:00.407</time></trkpt><trkpt lat="55.7779559" lon="37.7709940"><time>2020-12-20T08:02:01.400</time></trkpt><trkpt lat="55.7779095" lon="37.7709964"><time>2020-12-20T08:02:02.400</time></trkpt><trkpt lat="55.7778337" lon="37.7709922"><time>2020-12-20T08:02:04.423</time></trkpt><trkpt lat="55.7777433" lon="37.7709780"><time>2020-12-20T08:02:06.423</time></trkpt><trkpt lat="55.7776958" lon="37.7709919"><time>2020-12-20T08:02:07.437</time></trkpt><trkpt lat="55.7776435" lon="37.7709943"><time>2020-12-20T08:02:08.437</time></trkpt><trkpt lat="55.7775520" lon="37.7710002"><time>2020-12-20T08:02:10.437</time></trkpt><trkpt lat="55.7775047" lon="37.7710056"><time>2020-12-20T08:02:11.407</time></trkpt><trkpt lat="55.7774570" lon="37.7710193"><time>2020-12-20T08:02:12.410</time></trkpt><trkpt lat="55.7774096" lon="37.7710295"><time>2020-12-20T08:02:13.430</time></trkpt><trkpt lat="55.7731909" lon="37.7689376"><time>2020-12-20T08:05:00.433</time></trkpt><trkpt lat="55.7731761" lon="37.7689475"><time>2020-12-20T08:05:01.633</time></trkpt><trkpt lat="55.7731348" lon="37.7689135"><time>2020-12-20T08:05:05.477</time></trkpt><trkpt lat="55.7730948" lon="37.7688632"><time>2020-12-20T08:05:09.607</time></trkpt><trkpt lat="55.7730545" lon="37.7689068"><time>2020-12-20T08:05:28.383</time></trkpt><trkpt lat="55.7730423" lon="37.7689857"><time>2020-12-20T08:05:31.377</time></trkpt><trkpt lat="55.7730339" lon="37.7690901"><time>2020-12-20T08:05:34.393</time></trkpt><trkpt lat="55.7730297" lon="37.7691899"><time>2020-12-20T08:05:38.403</time></trkpt><trkpt lat="55.7730282" lon="37.7692733"><time>2020-12-20T08:05:41.387</time></trkpt><trkpt lat="55.7730344" lon="37.7693625"><time>2020-12-20T08:05:44.393</time></trkpt><trkpt lat="55.7730369" lon="37.7694558"><time>2020-12-20T08:05:48.370</time></trkpt><trkpt lat="55.7730066" lon="37.7695281"><time>2020-12-20T08:05:54.390</time></trkpt><trkpt lat="55.7730485" lon="37.7695765"><time>2020-12-20T08:06:06.360</time></trkpt><trkpt lat="55.7731042" lon="37.7695765"><time>2020-12-20T08:06:10.403</time></trkpt><trkpt lat="55.7731506" lon="37.7696006"><time>2020-12-20T08:06:13.387</time></trkpt><trkpt lat="55.7731949" lon="37.7696284"><time>2020-12-20T08:06:15.377</time></trkpt><trkpt lat="55.7732571" lon="37.7696364"><time>2020-12-20T08:06:18.387</time></trkpt><trkpt lat="55.7733123" lon="37.7696654"><time>2020-12-20T08:06:21.367</time></trkpt><trkpt lat="55.7733393" lon="37.7697319"><time>2020-12-20T08:06:24.387</time></trkpt><trkpt lat="55.7733549" lon="37.7698412"><time>2020-12-20T08:06:27.397</time></trkpt><trkpt lat="55.7733620" lon="37.7699303"><time>2020-12-20T08:06:29.410</time></trkpt><trkpt lat="55.7733759" lon="37.7700614"><time>2020-12-20T08:06:31.407</time></trkpt><trkpt lat="55.7733860" lon="37.7701944"><time>2020-12-20T08:06:33.383</time></trkpt><trkpt lat="55.7733969" lon="37.7703158"><time>2020-12-20T08:06:35.393</time></trkpt><trkpt lat="55.7734130" lon="37.7704310"><time>2020-12-20T08:06:37.397</time></trkpt><trkpt lat="55.7734200" lon="37.7705410"><time>2020-12-20T08:06:39.393</time></trkpt><trkpt lat="55.7734200" lon="37.7706477"><time>2020-12-20T08:06:41.377</time></trkpt><trkpt lat="55.7734152" lon="37.7707329"><time>2020-12-20T08:06:43.403</time></trkpt><trkpt lat="55.7733620" lon="37.7707964"><time>2020-12-20T08:06:46.377</time></trkpt><trkpt lat="55.7732896" lon="37.7708052"><time>2020-12-20T08:06:48.393</time></trkpt><trkpt lat="55.7732031" lon="37.7707979"><time>2020-12-20T08:06:50.387</time></trkpt><trkpt lat="55.7731262" lon="37.7707828"><time>2020-12-20T08:06:52.400</time></trkpt><trkpt lat="55.7730490" lon="37.7707613"><time>2020-12-20T08:06:54.397</time></trkpt><trkpt lat="55.7729963" lon="37.7707658"><time>2020-12-20T08:06:55.403</time></trkpt><trkpt lat="55.7729147" lon="37.7707633"><time>2020-12-20T08:06:57.397</time></trkpt><trkpt lat="55.7728438" lon="37.7707610"><time>2020-12-20T08:06:59.407</time></trkpt><trkpt lat="55.7727691" lon="37.7707615"><time>2020-12-20T08:07:01.380</time></trkpt><trkpt lat="55.7726998" lon="37.7707755"><time>2020-12-20T08:07:03.380</time></trkpt><trkpt lat="55.7726361" lon="37.7707744"><time>2020-12-20T08:07:05.403</time></trkpt><trkpt lat="55.7725792" lon="37.7707692"><time>2020-12-20T08:07:07.400</time></trkpt><trkpt lat="55.7725153" lon="37.7707889"><time>2020-12-20T08:07:09.397</time></trkpt><trkpt lat="55.7724574" lon="37.7708113"><time>2020-12-20T08:07:11.740</time></trkpt><trkpt lat="55.7723646" lon="37.7708152"><time>2020-12-20T08:07:13.397</time></trkpt><trkpt lat="55.7723192" lon="37.7708196"><time>2020-12-20T08:07:14.390</time></trkpt><trkpt lat="55.7722646" lon="37.7708292"><time>2020-12-20T08:07:16.400</time></trkpt><trkpt lat="55.7722060" lon="37.7708610"><time>2020-12-20T08:07:19.417</time></trkpt><trkpt lat="55.7721604" lon="37.7708830"><time>2020-12-20T08:07:21.390</time></trkpt><trkpt lat="55.7720860" lon="37.7709075"><time>2020-12-20T08:07:23.400</time></trkpt><trkpt lat="55.7720115" lon="37.7709153"><time>2020-12-20T08:07:25.397</time></trkpt><trkpt lat="55.7719298" lon="37.7709136"><time>2020-12-20T08:07:27.383</time></trkpt><trkpt lat="55.7718636" lon="37.7709053"><time>2020-12-20T08:07:29.423</time></trkpt><trkpt lat="55.7718104" lon="37.7709117"><time>2020-12-20T08:07:31.433</time></trkpt><trkpt lat="55.7717593" lon="37.7709231"><time>2020-12-20T08:07:33.407</time></trkpt><trkpt lat="55.7716969" lon="37.7709392"><time>2020-12-20T08:07:35.380</time></trkpt><trkpt lat="55.7716196" lon="37.7709611"><time>2020-12-20T08:07:37.393</time></trkpt><trkpt lat="55.7715733" lon="37.7709663"><time>2020-12-20T08:07:38.397</time></trkpt><trkpt lat="55.7714840" lon="37.7709768"><time>2020-12-20T08:07:40.383</time></trkpt><trkpt lat="55.7642362" lon="37.7715225"><time>2020-12-20T08:11:16.380</time></trkpt><trkpt lat="55.7642220" lon="37.7716003"><time>2020-12-20T08:11:18.383</time></trkpt><trkpt lat="55.7642259" lon="37.7716223"><time>2020-12-20T08:11:19.697</time></trkpt><trkpt lat="55.7642474" lon="37.7716751"><time>2020-12-20T08:11:28.407</time></trkpt><trkpt lat="55.7690801" lon="37.7728887"><time>2020-12-20T08:16:48.367</time></trkpt><trkpt lat="55.7691377" lon="37.7729186"><time>2020-12-20T08:16:55.467</time></trkpt><trkpt lat="55.7691840" lon="37.7729162"><time>2020-12-20T08:16:59.673</time></trkpt><trkpt lat="55.7692320" lon="37.7729392"><time>2020-12-20T08:17:07.500</time></trkpt><trkpt lat="55.7692767" lon="37.7729140"><time>2020-12-20T08:17:15.370</time></trkpt><trkpt lat="55.7693219" lon="37.7729314"><time>2020-12-20T08:17:24.403</time></trkpt><trkpt lat="55.7693219" lon="37.7729314"><time>2020-12-20T08:17:24.847</time></trkpt><trkpt lat="55.7693694" lon="37.7729339"><time>2020-12-20T08:17:33.377</time></trkpt><trkpt lat="55.7693822" lon="37.7728570"><time>2020-12-20T08:17:44.380</time></trkpt><trkpt lat="55.7694243" lon="37.7728234"><time>2020-12-20T08:18:22.390</time></trkpt><trkpt lat="55.7693981" lon="37.7728946"><time>2020-12-20T08:18:52.373</time></trkpt><trkpt lat="55.7693507" lon="37.7728964"><time>2020-12-20T08:18:59.393</time></trkpt><trkpt lat="55.7692987" lon="37.7729139"><time>2020-12-20T08:19:02.393</time></trkpt><trkpt lat="55.7692394" lon="37.7729462"><time>2020-12-20T08:19:05.397</time></trkpt><trkpt lat="55.7691757" lon="37.7729790"><time>2020-12-20T08:19:08.387</time></trkpt><trkpt lat="55.7691233" lon="37.7729774"><time>2020-12-20T08:19:10.387</time></trkpt><trkpt lat="55.7690765" lon="37.7729813"><time>2020-12-20T08:19:12.397</time></trkpt><trkpt lat="55.7690325" lon="37.7729979"><time>2020-12-20T08:19:14.400</time></trkpt><trkpt lat="55.7689775" lon="37.7730156"><time>2020-12-20T08:19:16.400</time></trkpt><trkpt lat="55.7689328" lon="37.7730360"><time>2020-12-20T08:19:19.373</time></trkpt><trkpt lat="55.7688882" lon="37.7730575"><time>2020-12-20T08:19:29.390</time></trkpt><trkpt lat="55.7688504" lon="37.7731030"><time>2020-12-20T08:19:32.377</time></trkpt><trkpt lat="55.7687913" lon="37.7730934"><time>2020-12-20T08:19:38.387</time></trkpt><trkpt lat="55.7687351" lon="37.7730829"><time>2020-12-20T08:19:40.397</time></trkpt><trkpt lat="55.7686796" lon="37.7730547"><time>2020-12-20T08:19:42.403</time></trkpt><trkpt lat="55.7686183" lon="37.7730049"><time>2020-12-20T08:19:45.380</time></trkpt><trkpt lat="55.7685586" lon="37.7730037"><time>2020-12-20T08:19:47.400</time></trkpt><trkpt lat="55.7685121" lon="37.7729866"><time>2020-12-20T08:19:49.397</time></trkpt><trkpt lat="55.7684645" lon="37.7729605"><time>2020-12-20T08:19:51.363</time></trkpt><trkpt lat="55.7684108" lon="37.7729413"><time>2020-12-20T08:19:53.383</time></trkpt><trkpt lat="55.7683662" lon="37.7729249"><time>2020-12-20T08:19:55.407</time></trkpt><trkpt lat="55.7683117" lon="37.7729094"><time>2020-12-20T08:19:57.403</time></trkpt><trkpt lat="55.7682614" lon="37.7729025"><time>2020-12-20T08:19:59.410</time></trkpt><trkpt lat="55.7682105" lon="37.7729150"><time>2020-12-20T08:20:01.403</time></trkpt><trkpt lat="55.7681629" lon="37.7729315"><time>2020-12-20T08:20:03.410</time></trkpt><trkpt lat="55.7680995" lon="37.7729526"><time>2020-12-20T08:20:06.433</time></trkpt><trkpt lat="55.7680418" lon="37.7729321"><time>2020-12-20T08:20:09.417</time></trkpt><trkpt lat="55.7679852" lon="37.7728877"><time>2020-12-20T08:20:12.377</time></trkpt><trkpt lat="55.7679360" lon="37.7728719"><time>2020-12-20T08:20:14.407</time></trkpt><trkpt lat="55.7678869" lon="37.7728660"><time>2020-12-20T08:20:16.400</time></trkpt><trkpt lat="55.7678282" lon="37.7728632"><time>2020-12-20T08:20:19.393</time></trkpt><trkpt lat="55.7658930" lon="37.7841907"><time>2020-12-20T08:33:15.200</time></trkpt><trkpt lat="55.7658980" lon="37.7840908"><time>2020-12-20T08:33:35.407</time></trkpt><trkpt lat="55.7658882" lon="37.7839715"><time>2020-12-20T08:33:38.400</time></trkpt><trkpt lat="55.7658842" lon="37.7838865"><time>2020-12-20T08:33:40.427</time></trkpt><trkpt lat="55.7659213" lon="37.7838286"><time>2020-12-20T08:33:43.407</time></trkpt><trkpt lat="55.7659754" lon="37.7838100"><time>2020-12-20T08:33:46.397</time></trkpt><trkpt lat="55.7660143" lon="37.7837436"><time>2020-12-20T08:33:49.397</time></trkpt><trkpt lat="55.7660733" lon="37.7837259"><time>2020-12-20T08:33:52.387</time></trkpt><trkpt lat="55.7661222" lon="37.7837104"><time>2020-12-20T08:33:54.373</time></trkpt><trkpt lat="55.7661673" lon="37.7836939"><time>2020-12-20T08:33:56.390</time></trkpt><trkpt lat="55.7662274" lon="37.7836634"><time>2020-12-20T08:33:59.400</time></trkpt><trkpt lat="55.7662721" lon="37.7836386"><time>2020-12-20T08:34:02.390</time></trkpt><trkpt lat="55.7663148" lon="37.7836081"><time>2020-12-20T08:34:05.397</time></trkpt><trkpt lat="55.7663572" lon="37.7835684"><time>2020-12-20T08:34:09.397</time></trkpt><trkpt lat="55.7664034" lon="37.7835720"><time>2020-12-20T08:34:28.403</time></trkpt><trkpt lat="55.7722016" lon="37.7849305"><time>2020-12-20T08:41:15.447</time></trkpt><trkpt lat="55.7722505" lon="37.7849781"><time>2020-12-20T08:41:19.397</time></trkpt><trkpt lat="55.7722634" lon="37.7849953"><time>2020-12-20T08:41:20.893</time></trkpt><trkpt lat="55.7723042" lon="37.7850354"><time>2020-12-20T08:41:23.643</time></trkpt><trkpt lat="55.7723491" lon="37.7850346"><time>2020-12-20T08:41:26.370</time></trkpt><trkpt lat="55.7723999" lon="37.7850220"><time>2020-12-20T08:41:36.437</time></trkpt><trkpt lat="55.7724901" lon="37.7849427"><time>2020-12-20T08:42:24.377</time></trkpt><trkpt lat="55.7725113" lon="37.7848503"><time>2020-12-20T08:42:28.397</time></trkpt><trkpt lat="55.7725386" lon="37.7847867"><time>2020-12-20T08:42:31.390</time></trkpt><trkpt lat="55.7725639" lon="37.7847141"><time>2020-12-20T08:42:34.383</time></trkpt><trkpt lat="55.7725911" lon="37.7846315"><time>2020-12-20T08:42:39.373</time></trkpt><trkpt lat="55.7725932" lon="37.7845454"><time>2020-12-20T08:42:42.370</time></trkpt><trkpt lat="55.7725780" lon="37.7844451"><time>2020-12-20T08:42:45.383</time></trkpt><trkpt lat="55.7725713" lon="37.7843653"><time>2020-12-20T08:42:47.363</time></trkpt><trkpt lat="55.7725718" lon="37.7842436"><time>2020-12-20T08:42:50.390</time></trkpt><trkpt lat="55.7725717" lon="37.7841366"><time>2020-12-20T08:42:52.387</time></trkpt><trkpt lat="55.7725692" lon="37.7840219"><time>2020-12-20T08:42:54.407</time></trkpt><trkpt lat="55.7725547" lon="37.7839295"><time>2020-12-20T08:42:56.390</time></trkpt><trkpt lat="55.7725423" lon="37.7838497"><time>2020-12-20T08:42:58.407</time></trkpt><trkpt lat="55.7725315" lon="37.7837598"><time>2020-12-20T08:43:00.397</time></trkpt><trkpt lat="55.7725385" lon="37.7836589"><time>2020-12-20T08:43:03.383</time></trkpt><trkpt lat="55.7725647" lon="37.7835888"><time>2020-12-20T08:43:05.357</time></trkpt><trkpt lat="55.7726043" lon="37.7835210"><time>2020-12-20T08:43:07.393</time></trkpt><trkpt lat="55.7726485" lon="37.7834507"><time>2020-12-20T08:43:09.370</time></trkpt><trkpt lat="55.7726850" lon="37.7833866"><time>2020-12-20T08:43:11.400</time></trkpt><trkpt lat="55.7727362" lon="37.7833501"><time>2020-12-20T08:43:13.383</time></trkpt><trkpt lat="55.7727819" lon="37.7833500"><time>2020-12-20T08:43:15.397</time></trkpt><trkpt lat="55.7728364" lon="37.7833402"><time>2020-12-20T08:43:17.380</time></trkpt><trkpt lat="55.7729006" lon="37.7833416"><time>2020-12-20T08:43:19.397</time></trkpt><trkpt lat="55.7729630" lon="37.7833460"><time>2020-12-20T08:43:21.387</time></trkpt><trkpt lat="55.7730363" lon="37.7833431"><time>2020-12-20T08:43:23.413</time></trkpt><trkpt lat="55.7731250" lon="37.7833545"><time>2020-12-20T08:43:25.377</time></trkpt><trkpt lat="55.7731719" lon="37.7833514"><time>2020-12-20T08:43:26.423</time></trkpt><trkpt lat="55.7732200" lon="37.7833534"><time>2020-12-20T08:43:27.377</time></trkpt><trkpt lat="55.7732693" lon="37.7833469"><time>2020-12-20T08:43:28.377</time></trkpt><trkpt lat="55.7733196" lon="37.7833250"><time>2020-12-20T08:43:29.407</time></trkpt><trkpt lat="55.7733705" lon="37.7833058"><time>2020-12-20T08:43:30.433</time></trkpt><trkpt lat="55.7734265" lon="37.7832860"><time>2020-12-20T08:43:31.383</time></trkpt><trkpt lat="55.7734797" lon="37.7832751"><time>2020-12-20T08:43:33.363</time></trkpt><trkpt lat="55.7735263" lon="37.7832289"><time>2020-12-20T08:43:40.400</time></trkpt><trkpt lat="55.7735661" lon="37.7832887"><time>2020-12-20T08:44:02.393</time></trkpt><trkpt lat="55.7736059" lon="37.7833756"><time>2020-12-20T08:44:04.393</time></trkpt><trkpt lat="55.7736357" lon="37.7834801"><time>2020-12-20T08:44:06.393</time></trkpt><trkpt lat="55.7736515" lon="37.7836001"><time>2020-12-20T08:44:08.413</time></trkpt><trkpt lat="55.7736670" lon="37.7837359"><time>2020-12-20T08:44:10.387</time></trkpt><trkpt lat="55.7736881" lon="37.7838963"><time>2020-12-20T08:44:12.397</time></trkpt><trkpt lat="55.7737001" lon="37.7839874"><time>2020-12-20T08:44:13.400</time></trkpt><trkpt lat="55.7737152" lon="37.7841287"><time>2020-12-20T08:44:15.377</time></trkpt><trkpt lat="55.7737385" lon="37.7842755"><time>2020-12-20T08:44:17.700</time></trkpt><trkpt lat="55.7737486" lon="37.7843592"><time>2020-12-20T08:44:18.397</time></trkpt><trkpt lat="55.7737640" lon="37.7845109"><time>2020-12-20T08:44:20.370</time></trkpt><trkpt lat="55.7737648" lon="37.7845961"><time>2020-12-20T08:44:21.373</time></trkpt><trkpt lat="55.7737680" lon="37.7847386"><time>2020-12-20T08:44:23.410</time></trkpt><trkpt lat="55.7737533" lon="37.7849002"><time>2020-12-20T08:44:25.407</time></trkpt><trkpt lat="55.7737496" lon="37.7849979"><time>2020-12-20T08:44:26.410</time></trkpt><trkpt lat="55.7737464" lon="37.7850914"><time>2020-12-20T08:44:27.403</time></trkpt><trkpt lat="55.7737399" lon="37.7852414"><time>2020-12-20T08:44:29.407</time></trkpt><trkpt lat="55.7737354" lon="37.7853805"><time>2020-12-20T08:44:31.397</time></trkpt><trkpt lat="55.7737324" lon="37.7855146"><time>2020-12-20T08:44:33.373</time></trkpt><trkpt lat="55.7737357" lon="37.7856461"><time>2020-12-20T08:44:35.390</time></trkpt><trkpt lat="55.7737489" lon="37.7857907"><time>2020-12-20T08:44:37.380</time></trkpt><trkpt lat="55.7737498" lon="37.7858779"><time>2020-12-20T08:44:38.397</time></trkpt><trkpt lat="55.7737496" lon="37.7859614"><time>2020-12-20T08:44:39.417</time></trkpt><trkpt lat="55.7737494" lon="37.7860868"><time>2020-12-20T08:44:41.400</time></trkpt><trkpt lat="55.7737512" lon="37.7862405"><time>2020-12-20T08:44:43.397</time></trkpt><trkpt lat="55.7737499" lon="37.7863271"><time>2020-12-20T08:44:44.393</time></trkpt><trkpt lat="55.7737506" lon="37.7864110"><time>2020-12-20T08:44:45.393</time></trkpt><trkpt lat="55.7724036" lon="37.7979519"><time>2020-12-20T08:48:18.373</time></trkpt><trkpt lat="55.7723950" lon="37.7979248"><time>2020-12-20T08:48:25.347</time></trkpt><trkpt lat="55.7723484" lon="37.7978890"><time>2020-12-20T08:48:44.400</time></trkpt><trkpt lat="55.7683004" lon="37.7985329"><time>2020-12-20T08:54:20.350</time></trkpt><trkpt lat="55.7682750" lon="37.7985265"><time>2020-12-20T08:54:23.387</time></trkpt><trkpt lat="55.7682875" lon="37.7984497"><time>2020-12-20T08:54:31.410</time></trkpt><trkpt lat="55.7682360" lon="37.7984473"><time>2020-12-20T08:54:41.383</time></trkpt><trkpt lat="55.7682832" lon="37.7984282"><time>2020-12-20T08:54:59.400</time></trkpt><trkpt lat="55.7683115" lon="37.7983374"><time>2020-12-20T08:55:23.387</time></trkpt><trkpt lat="55.7683562" lon="37.7983020"><time>2020-12-20T08:55:25.390</time></trkpt><trkpt lat="55.7683964" lon="37.7982583"><time>2020-12-20T08:55:27.393</time></trkpt><trkpt lat="55.7684290" lon="37.7983181"><time>2020-12-20T08:55:30.407</time></trkpt><trkpt lat="55.7684587" lon="37.7984251"><time>2020-12-20T08:55:32.387</time></trkpt><trkpt lat="55.7684780" lon="37.7985160"><time>2020-12-20T08:55:34.383</time></trkpt><trkpt lat="55.7685109" lon="37.7985886"><time>2020-12-20T08:55:36.410</time></trkpt><trkpt lat="55.7685192" lon="37.7986706"><time>2020-12-20T08:55:38.393</time></trkpt><trkpt lat="55.7685278" lon="37.7987529"><time>2020-12-20T08:55:40.390</time></trkpt><trkpt lat="55.7685278" lon="37.7988422"><time>2020-12-20T08:55:42.387</time></trkpt><trkpt lat="55.7685170" lon="37.7989229"><time>2020-12-20T08:55:44.390</time></trkpt><trkpt lat="55.7685190" lon="37.7990098"><time>2020-12-20T08:55:46.400</time></trkpt><trkpt lat="55.7685080" lon="37.7991010"><time>2020-12-20T08:55:50.393</time></trkpt><trkpt lat="55.7684857" lon="37.7991963"><time>2020-12-20T08:55:53.397</time></trkpt><trkpt lat="55.7684711" lon="37.7992747"><time>2020-12-20T08:55:55.390</time></trkpt><trkpt lat="55.7684467" lon="37.7993542"><time>2020-12-20T08:55:57.397</time></trkpt><trkpt lat="55.7684794" lon="37.7994200"><time>2020-12-20T08:56:08.377</time></trkpt><trkpt lat="55.7685372" lon="37.7993558"><time>2020-12-20T08:56:11.397</time></trkpt><trkpt lat="55.7685759" lon="37.7992912"><time>2020-12-20T08:56:13.397</time></trkpt><trkpt lat="55.7686240" lon="37.7992305"><time>2020-12-20T08:56:15.410</time></trkpt><trkpt lat="55.7686739" lon="37.7991709"><time>2020-12-20T08:56:18.373</time></trkpt><trkpt lat="55.7687297" lon="37.7992160"><time>2020-12-20T08:56:22.377</time></trkpt><trkpt lat="55.7687640" lon="37.7992770"><time>2020-12-20T08:56:24.403</time></trkpt><trkpt lat="55.7687977" lon="37.7993390"><time>2020-12-20T08:56:26.387</time></trkpt><trkpt lat="55.7688297" lon="37.7994100"><time>2020-12-20T08:56:28.403</time></trkpt><trkpt lat="55.7688598" lon="37.7994767"><time>2020-12-20T08:56:30.393</time></trkpt><trkpt lat="55.7688906" lon="37.7995598"><time>2020-12-20T08:56:32.390</time></trkpt><trkpt lat="55.7689298" lon="37.7996547"><time>2020-12-20T08:56:34.400</time></trkpt><trkpt lat="55.7689658" lon="37.7997549"><time>2020-12-20T08:56:36.407</time></trkpt><trkpt lat="55.7690027" lon="37.7998645"><time>2020-12-20T08:56:38.387</time></trkpt><trkpt lat="55.7690388" lon="37.7999966"><time>2020-12-20T08:56:40.383</time></trkpt><trkpt lat="55.7690714" lon="37.8001223"><time>2020-12-20T08:56:42.387</time></trkpt><trkpt lat="55.7690867" lon="37.8002287"><time>2020-12-20T08:56:44.410</time></trkpt><trkpt lat="55.7690980" lon="37.8003567"><time>2020-12-20T08:56:46.443</time></trkpt><trkpt lat="55.7691063" lon="37.8004506"><time>2020-12-20T08:56:48.423</time></trkpt><trkpt lat="55.7691076" lon="37.8005389"><time>2020-12-20T08:56:50.423</time></trkpt><trkpt lat="55.7690957" lon="37.8006487"><time>2020-12-20T08:56:52.417</time></trkpt><trkpt lat="55.7690837" lon="37.8007419"><time>2020-12-20T08:56:54.423</time></trkpt><trkpt lat="55.7691204" lon="37.8008250"><time>2020-12-20T08:56:56.423</time></trkpt><trkpt lat="55.7691421" lon="37.8009127"><time>2020-12-20T08:56:58.423</time></trkpt><trkpt lat="55.7691712" lon="37.8010003"><time>2020-12-20T08:57:01.417</time></trkpt><trkpt lat="55.7691699" lon="37.8010932"><time>2020-12-20T08:57:03.437</time></trkpt><trkpt lat="55.7691750" lon="37.8011896"><time>2020-12-20T08:57:05.440</time></trkpt><trkpt lat="55.7691901" lon="37.8012667"><time>2020-12-20T08:57:06.420</time></trkpt><trkpt lat="55.7692357" lon="37.8013928"><time>2020-12-20T08:57:08.437</time></trkpt><trkpt lat="55.7729776" lon="37.8102321"><time>2020-12-20T09:01:25.383</time></trkpt><trkpt lat="55.7730228" lon="37.8102273"><time>2020-12-20T09:01:32.377</time></trkpt><trkpt lat="55.7730742" lon="37.8102211"><time>2020-12-20T09:01:36.387</time></trkpt><trkpt lat="55.7731247" lon="37.8102433"><time>2020-12-20T09:01:40.387</time></trkpt><trkpt lat="55.7731549" lon="37.8103110"><time>2020-12-20T09:01:44.393</time></trkpt><trkpt lat="55.7731789" lon="37.8103904"><time>2020-12-20T09:01:48.403</time></trkpt><trkpt lat="55.7732143" lon="37.8104488"><time>2020-12-20T09:01:52.360</time></trkpt><trkpt lat="55.7732118" lon="37.8105294"><time>2020-12-20T09:01:57.357</time></trkpt><trkpt lat="55.7731706" lon="37.8105718"><time>2020-12-20T09:02:01.593</time></trkpt><trkpt lat="55.7731577" lon="37.8106118"><time>2020-12-20T09:02:07.233</time></trkpt><trkpt lat="55.7732168" lon="37.8105842"><time>2020-12-20T09:02:26.377</time></trkpt><trkpt lat="55.7730838" lon="37.8162216"><time>2020-12-20T09:12:49.407</time></trkpt><trkpt lat="55.7730657" lon="37.8162299"><time>2020-12-20T09:13:03.557</time></trkpt><trkpt lat="55.7730236" lon="37.8162331"><time>2020-12-20T09:13:19.427</time></trkpt><trkpt lat="55.7757014" lon="37.8054614"><time>2020-12-20T09:21:17.417</time></trkpt><trkpt lat="55.7800198" lon="37.8036816"><time>2020-12-20T09:24:21.147</time></trkpt><trkpt lat="55.7805785" lon="37.8118655"><time>2020-12-20T09:28:43.303</time></trkpt><trkpt lat="55.7805558" lon="37.8119733"><time>2020-12-20T09:29:03.423</time></trkpt><trkpt lat="55.7785943" lon="37.8171282"><time>2020-12-20T09:34:28.043</time></trkpt><trkpt lat="55.7785945" lon="37.8171436"><time>2020-12-20T09:34:28.363</time></trkpt><trkpt lat="55.7785586" lon="37.8170860"><time>2020-12-20T09:34:40.400</time></trkpt><trkpt lat="55.7837755" lon="37.8173479"><time>2020-12-20T09:39:04.090</time></trkpt><trkpt lat="55.7837961" lon="37.8173395"><time>2020-12-20T09:39:08.380</time></trkpt><trkpt lat="55.7881532" lon="37.8132025"><time>2020-12-20T09:50:11.847</time></trkpt><trkpt lat="55.7881909" lon="37.8132105"><time>2020-12-20T09:50:18.387</time></trkpt><trkpt lat="55.7882199" lon="37.8131322"><time>2020-12-20T09:50:23.387</time></trkpt><trkpt lat="55.7882648" lon="37.8130892"><time>2020-12-20T09:50:28.407</time></trkpt><trkpt lat="55.7882076" lon="37.8130692"><time>2020-12-20T09:52:03.377</time></trkpt><trkpt lat="55.7881591" lon="37.8130601"><time>2020-12-20T09:52:06.387</time></trkpt><trkpt lat="55.7881063" lon="37.8130061"><time>2020-12-20T09:52:10.380</time></trkpt><trkpt lat="55.7880520" lon="37.8130052"><time>2020-12-20T09:52:15.390</time></trkpt><trkpt lat="55.7880082" lon="37.8129718"><time>2020-12-20T09:52:18.407</time></trkpt><trkpt lat="55.7879978" lon="37.8128843"><time>2020-12-20T09:52:21.390</time></trkpt><trkpt lat="55.7879696" lon="37.8128221"><time>2020-12-20T09:52:24.403</time></trkpt><trkpt lat="55.7879248" lon="37.8128146"><time>2020-12-20T09:52:27.377</time></trkpt><trkpt lat="55.7878565" lon="37.8127958"><time>2020-12-20T09:52:31.387</time></trkpt><trkpt lat="55.7878022" lon="37.8127394"><time>2020-12-20T09:52:33.377</time></trkpt><trkpt lat="55.7877672" lon="37.8126795"><time>2020-12-20T09:52:35.363</time></trkpt><trkpt lat="55.7877233" lon="37.8126232"><time>2020-12-20T09:52:37.380</time></trkpt><trkpt lat="55.7876826" lon="37.8125552"><time>2020-12-20T09:52:39.373</time></trkpt><trkpt lat="55.7876551" lon="37.8124881"><time>2020-12-20T09:52:41.387</time></trkpt><trkpt lat="55.7875918" lon="37.8124560"><time>2020-12-20T09:52:44.397</time></trkpt><trkpt lat="55.7875382" lon="37.8124154"><time>2020-12-20T09:52:46.380</time></trkpt><trkpt lat="55.7874665" lon="37.8123926"><time>2020-12-20T09:52:48.397</time></trkpt><trkpt lat="55.7874205" lon="37.8124200"><time>2020-12-20T09:52:50.377</time></trkpt><trkpt lat="55.7873752" lon="37.8124663"><time>2020-12-20T09:52:52.410</time></trkpt><trkpt lat="55.7873282" lon="37.8125079"><time>2020-12-20T09:52:55.390</time></trkpt><trkpt lat="55.7872816" lon="37.8125061"><time>2020-12-20T09:52:58.380</time></trkpt><trkpt lat="55.7872200" lon="37.8124853"><time>2020-12-20T09:53:01.377</time></trkpt><trkpt lat="55.7871676" lon="37.8124297"><time>2020-12-20T09:53:03.387</time></trkpt><trkpt lat="55.7871179" lon="37.8123584"><time>2020-12-20T09:53:05.397</time></trkpt><trkpt lat="55.7870652" lon="37.8123014"><time>2020-12-20T09:53:07.390</time></trkpt><trkpt lat="55.7870018" lon="37.8122476"><time>2020-12-20T09:53:09.373</time></trkpt><trkpt lat="55.7869462" lon="37.8122022"><time>2020-12-20T09:53:11.393</time></trkpt><trkpt lat="55.7868885" lon="37.8121858"><time>2020-12-20T09:53:14.387</time></trkpt><trkpt lat="55.7868389" lon="37.8121910"><time>2020-12-20T09:53:16.377</time></trkpt><trkpt lat="55.7867897" lon="37.8121927"><time>2020-12-20T09:53:18.397</time></trkpt><trkpt lat="55.7867271" lon="37.8122075"><time>2020-12-20T09:53:21.393</time></trkpt><trkpt lat="55.7866779" lon="37.8122155"><time>2020-12-20T09:53:23.400</time></trkpt><trkpt lat="55.7866201" lon="37.8122173"><time>2020-12-20T09:53:25.390</time></trkpt><trkpt lat="55.7865549" lon="37.8122237"><time>2020-12-20T09:53:27.397</time></trkpt><trkpt lat="55.7864910" lon="37.8122459"><time>2020-12-20T09:53:29.380</time></trkpt><trkpt lat="55.7864336" lon="37.8122278"><time>2020-12-20T09:53:31.390</time></trkpt><trkpt lat="55.7863894" lon="37.8121761"><time>2020-12-20T09:53:33.377</time></trkpt><trkpt lat="55.7863560" lon="37.8120743"><time>2020-12-20T09:53:35.360</time></trkpt><trkpt lat="55.7863335" lon="37.8119614"><time>2020-12-20T09:53:37.397</time></trkpt><trkpt lat="55.7862958" lon="37.8118658"><time>2020-12-20T09:53:39.397</time></trkpt><trkpt lat="55.7862595" lon="37.8117658"><time>2020-12-20T09:53:41.397</time></trkpt><trkpt lat="55.7862029" lon="37.8116715"><time>2020-12-20T09:53:43.397</time></trkpt><trkpt lat="55.7861643" lon="37.8116280"><time>2020-12-20T09:53:44.393</time></trkpt><trkpt lat="55.7861290" lon="37.8115772"><time>2020-12-20T09:53:45.373</time></trkpt><trkpt lat="55.7860814" lon="37.8115298"><time>2020-12-20T09:53:46.387</time></trkpt><trkpt lat="55.7860274" lon="37.8114736"><time>2020-12-20T09:53:47.403</time></trkpt><trkpt lat="55.7859745" lon="37.8114125"><time>2020-12-20T09:53:48.387</time></trkpt><trkpt lat="55.7859234" lon="37.8113691"><time>2020-12-20T09:53:49.387</time></trkpt><trkpt lat="55.7858767" lon="37.8113218"><time>2020-12-20T09:53:50.397</time></trkpt><trkpt lat="55.7858369" lon="37.8112744"><time>2020-12-20T09:53:51.390</time></trkpt><trkpt lat="55.7857978" lon="37.8112296"><time>2020-12-20T09:53:52.393</time></trkpt><trkpt lat="55.7857573" lon="37.8111836"><time>2020-12-20T09:53:53.383</time></trkpt><trkpt lat="55.7857141" lon="37.8111276"><time>2020-12-20T09:53:54.393</time></trkpt><trkpt lat="55.7856696" lon="37.8110665"><time>2020-12-20T09:53:55.377</time></trkpt><trkpt lat="55.7856307" lon="37.8109998"><time>2020-12-20T09:53:56.380</time></trkpt><trkpt lat="55.7855929" lon="37.8109370"><time>2020-12-20T09:53:57.410</time></trkpt><trkpt lat="55.7855571" lon="37.8108796"><time>2020-12-20T09:53:58.407</time></trkpt><trkpt lat="55.7855162" lon="37.8108106"><time>2020-12-20T09:53:59.400</time></trkpt><trkpt lat="55.7854799" lon="37.8107392"><time>2020-12-20T09:54:00.400</time></trkpt><trkpt lat="55.7854484" lon="37.8106706"><time>2020-12-20T09:54:01.380</time></trkpt><trkpt lat="55.7853823" lon="37.8105535"><time>2020-12-20T09:54:03.420</time></trkpt><trkpt lat="55.7853545" lon="37.8104880"><time>2020-12-20T09:54:04.390</time></trkpt><trkpt lat="55.7853272" lon="37.8104197"><time>2020-12-20T09:54:05.397</time></trkpt><trkpt lat="55.7853029" lon="37.8103498"><time>2020-12-20T09:54:06.390</time></trkpt><trkpt lat="55.7852660" lon="37.8102358"><time>2020-12-20T09:54:08.397</time></trkpt><trkpt lat="55.7852346" lon="37.8101490"><time>2020-12-20T09:54:10.393</time></trkpt><trkpt lat="55.7852229" lon="37.8100630"><time>2020-12-20T09:54:23.370</time></trkpt><trkpt lat="55.7852566" lon="37.8099865"><time>2020-12-20T09:54:26.387</time></trkpt><trkpt lat="55.7852839" lon="37.8099185"><time>2020-12-20T09:54:28.400</time></trkpt><trkpt lat="55.7853414" lon="37.8098224"><time>2020-12-20T09:54:30.387</time></trkpt><trkpt lat="55.7853940" lon="37.8097202"><time>2020-12-20T09:54:32.407</time></trkpt><trkpt lat="55.7854316" lon="37.8096111"><time>2020-12-20T09:54:34.383</time></trkpt><trkpt lat="55.7854529" lon="37.8095187"><time>2020-12-20T09:54:36.377</time></trkpt><trkpt lat="55.7854664" lon="37.8094265"><time>2020-12-20T09:54:40.387</time></trkpt><trkpt lat="55.7854824" lon="37.8093445"><time>2020-12-20T09:54:45.410</time></trkpt><trkpt lat="55.7855269" lon="37.8093042"><time>2020-12-20T09:54:51.377</time></trkpt><trkpt lat="55.7855291" lon="37.8092997"><time>2020-12-20T09:54:55.920</time></trkpt><trkpt lat="55.7878145" lon="37.8010570"><time>2020-12-20T10:01:43.037</time></trkpt><trkpt lat="55.7878188" lon="37.8010735"><time>2020-12-20T10:01:43.380</time></trkpt><trkpt lat="55.7878295" lon="37.8009929"><time>2020-12-20T10:01:53.380</time></trkpt><trkpt lat="55.7878129" lon="37.8009108"><time>2020-12-20T10:02:32.383</time></trkpt><trkpt lat="55.7878086" lon="37.8008173"><time>2020-12-20T10:02:36.400</time></trkpt><trkpt lat="55.7878278" lon="37.8007324"><time>2020-12-20T10:02:39.387</time></trkpt><trkpt lat="55.7878377" lon="37.8006340"><time>2020-12-20T10:02:42.390</time></trkpt><trkpt lat="55.7878460" lon="37.8005496"><time>2020-12-20T10:02:45.380</time></trkpt><trkpt lat="55.7878513" lon="37.8004633"><time>2020-12-20T10:02:47.413</time></trkpt><trkpt lat="55.7878336" lon="37.8003753"><time>2020-12-20T10:02:49.390</time></trkpt><trkpt lat="55.7877921" lon="37.8002866"><time>2020-12-20T10:02:52.380</time></trkpt><trkpt lat="55.7877367" lon="37.8002628"><time>2020-12-20T10:02:54.397</time></trkpt><trkpt lat="55.7876647" lon="37.8002465"><time>2020-12-20T10:02:56.397</time></trkpt><trkpt lat="55.7876165" lon="37.8002212"><time>2020-12-20T10:02:57.403</time></trkpt><trkpt lat="55.7875716" lon="37.8002025"><time>2020-12-20T10:02:58.413</time></trkpt><trkpt lat="55.7874888" lon="37.8001584"><time>2020-12-20T10:03:00.410</time></trkpt><trkpt lat="55.7874334" lon="37.8001366"><time>2020-12-20T10:03:01.407</time></trkpt><trkpt lat="55.7873767" lon="37.8001048"><time>2020-12-20T10:03:02.403</time></trkpt><trkpt lat="55.7873312" lon="37.8000970"><time>2020-12-20T10:03:03.397</time></trkpt><trkpt lat="55.7872335" lon="37.8000845"><time>2020-12-20T10:03:05.407</time></trkpt><trkpt lat="55.7871840" lon="37.8000800"><time>2020-12-20T10:03:06.400</time></trkpt><trkpt lat="55.7870923" lon="37.8000651"><time>2020-12-20T10:03:08.420</time></trkpt><trkpt lat="55.7870169" lon="37.8000518"><time>2020-12-20T10:03:10.397</time></trkpt><trkpt lat="55.7869354" lon="37.8000430"><time>2020-12-20T10:03:12.407</time></trkpt><trkpt lat="55.7868422" lon="37.8000100"><time>2020-12-20T10:03:14.407</time></trkpt><trkpt lat="55.7867664" lon="37.7999930"><time>2020-12-20T10:03:16.390</time></trkpt><trkpt lat="55.7866934" lon="37.7999966"><time>2020-12-20T10:03:18.390</time></trkpt><trkpt lat="55.7866131" lon="37.7999971"><time>2020-12-20T10:03:20.397</time></trkpt><trkpt lat="55.7865227" lon="37.8000104"><time>2020-12-20T10:03:22.407</time></trkpt><trkpt lat="55.7864329" lon="37.8000185"><time>2020-12-20T10:03:24.407</time></trkpt><trkpt lat="55.7863844" lon="37.8000109"><time>2020-12-20T10:03:25.397</time></trkpt><trkpt lat="55.7863277" lon="37.8000091"><time>2020-12-20T10:03:26.380</time></trkpt><trkpt lat="55.7862668" lon="37.8000016"><time>2020-12-20T10:03:27.403</time></trkpt><trkpt lat="55.7862103" lon="37.8000025"><time>2020-12-20T10:03:28.407</time></trkpt><trkpt lat="55.7861548" lon="37.7999920"><time>2020-12-20T10:03:29.390</time></trkpt><trkpt lat="55.7860994" lon="37.7999816"><time>2020-12-20T10:03:30.400</time></trkpt><trkpt lat="55.7860451" lon="37.7999760"><time>2020-12-20T10:03:31.393</time></trkpt><trkpt lat="55.7859923" lon="37.7999682"><time>2020-12-20T10:03:32.400</time></trkpt><trkpt lat="55.7859433" lon="37.7999593"><time>2020-12-20T10:03:33.397</time></trkpt><trkpt lat="55.7858977" lon="37.7999470"><time>2020-12-20T10:03:34.383</time></trkpt><trkpt lat="55.7858294" lon="37.7999473"><time>2020-12-20T10:03:36.403</time></trkpt><trkpt lat="55.7857773" lon="37.7998950"><time>2020-12-20T10:03:38.403</time></trkpt><trkpt lat="55.7857397" lon="37.7998127"><time>2020-12-20T10:03:41.363</time></trkpt><trkpt lat="55.7856971" lon="37.7997145"><time>2020-12-20T10:03:43.377</time></trkpt><trkpt lat="55.7856718" lon="37.7995991"><time>2020-12-20T10:03:45.420</time></trkpt><trkpt lat="55.7856737" lon="37.7994644"><time>2020-12-20T10:03:47.407</time></trkpt><trkpt lat="55.7856789" lon="37.7993346"><time>2020-12-20T10:03:49.397</time></trkpt><trkpt lat="55.7856649" lon="37.7992302"><time>2020-12-20T10:03:51.363</time></trkpt><trkpt lat="55.7856470" lon="37.7991308"><time>2020-12-20T10:03:54.367</time></trkpt><trkpt lat="55.7856061" lon="37.7990880"><time>2020-12-20T10:03:57.383</time></trkpt><trkpt lat="55.7856050" lon="37.7989942"><time>2020-12-20T10:04:03.393</time></trkpt><trkpt lat="55.7856132" lon="37.7989061"><time>2020-12-20T10:04:05.407</time></trkpt><trkpt lat="55.7856092" lon="37.7987912"><time>2020-12-20T10:04:07.383</time></trkpt><trkpt lat="55.7856103" lon="37.7986528"><time>2020-12-20T10:04:09.387</time></trkpt><trkpt lat="55.7853366" lon="37.7966434"><time>2020-12-20T10:06:29.387</time></trkpt><trkpt lat="55.7853584" lon="37.7967339"><time>2020-12-20T10:06:32.377</time></trkpt><trkpt lat="55.7853665" lon="37.7968200"><time>2020-12-20T10:06:34.380</time></trkpt><trkpt lat="55.7853518" lon="37.7969298"><time>2020-12-20T10:06:36.380</time></trkpt><trkpt lat="55.7853489" lon="37.7970310"><time>2020-12-20T10:06:38.400</time></trkpt><trkpt lat="55.7853608" lon="37.7971219"><time>2020-12-20T10:06:40.407</time></trkpt><trkpt lat="55.7853677" lon="37.7972067"><time>2020-12-20T10:06:42.370</time></trkpt><trkpt lat="55.7853517" lon="37.7973038"><time>2020-12-20T10:06:45.407</time></trkpt><trkpt lat="55.7852934" lon="37.7973556"><time>2020-12-20T10:06:48.397</time></trkpt><trkpt lat="55.7852390" lon="37.7973746"><time>2020-12-20T10:06:50.383</time></trkpt><trkpt lat="55.7851682" lon="37.7973976"><time>2020-12-20T10:06:52.363</time></trkpt><trkpt lat="55.7851040" lon="37.7974297"><time>2020-12-20T10:06:54.387</time></trkpt><trkpt lat="55.7850610" lon="37.7974785"><time>2020-12-20T10:06:56.400</time></trkpt><trkpt lat="55.7850241" lon="37.7975349"><time>2020-12-20T10:06:58.397</time></trkpt><trkpt lat="55.7849824" lon="37.7975879"><time>2020-12-20T10:07:00.397</time></trkpt><trkpt lat="55.7849345" lon="37.7976260"><time>2020-12-20T10:07:02.410</time></trkpt><trkpt lat="55.7848810" lon="37.7976224"><time>2020-12-20T10:07:04.373</time></trkpt><trkpt lat="55.7848353" lon="37.7975888"><time>2020-12-20T10:07:07.363</time></trkpt><trkpt lat="55.7847923" lon="37.7976179"><time>2020-12-20T10:07:10.380</time></trkpt><trkpt lat="55.7847901" lon="37.7975245"><time>2020-12-20T10:07:16.367</time></trkpt><trkpt lat="55.7847640" lon="37.7974176"><time>2020-12-20T10:07:19.360</time></trkpt><trkpt lat="55.7847325" lon="37.7973380"><time>2020-12-20T10:07:22.437</time></trkpt><trkpt lat="55.7847335" lon="37.7972435"><time>2020-12-20T10:07:26.390</time></trkpt><trkpt lat="55.7847201" lon="37.7971754"><time>2020-12-20T10:07:30.810</time></trkpt><trkpt lat="55.7847462" lon="37.7973298"><time>2020-12-20T10:07:41.367</time></trkpt><trkpt lat="55.7847712" lon="37.7974044"><time>2020-12-20T10:07:46.400</time></trkpt><trkpt lat="55.7847743" lon="37.7974925"><time>2020-12-20T10:08:01.383</time></trkpt><trkpt lat="55.7847822" lon="37.7975963"><time>2020-12-20T10:08:13.387</time></trkpt><trkpt lat="55.7847278" lon="37.7976776"><time>2020-12-20T10:08:23.397</time></trkpt><trkpt lat="55.7846757" lon="37.7977473"><time>2020-12-20T10:08:25.417</time></trkpt><trkpt lat="55.7846247" lon="37.7978111"><time>2020-12-20T10:08:27.393</time></trkpt><trkpt lat="55.7845651" lon="37.7978665"><time>2020-12-20T10:08:29.373</time></trkpt><trkpt lat="55.7845019" lon="37.7979448"><time>2020-12-20T10:08:31.400</time></trkpt><trkpt lat="55.7844428" lon="37.7979966"><time>2020-12-20T10:08:33.413</time></trkpt><trkpt lat="55.7843919" lon="37.7980376"><time>2020-12-20T10:08:35.410</time></trkpt><trkpt lat="55.7843495" lon="37.7980885"><time>2020-12-20T10:08:37.397</time></trkpt><trkpt lat="55.7842981" lon="37.7981514"><time>2020-12-20T10:08:40.387</time></trkpt><trkpt lat="55.7842597" lon="37.7982032"><time>2020-12-20T10:08:43.403</time></trkpt><trkpt lat="55.7842139" lon="37.7981856"><time>2020-12-20T10:08:49.387</time></trkpt><trkpt lat="55.7841615" lon="37.7981732"><time>2020-12-20T10:08:53.403</time></trkpt><trkpt lat="55.7841038" lon="37.7981613"><time>2020-12-20T10:08:57.380</time></trkpt><trkpt lat="55.7840603" lon="37.7981908"><time>2020-12-20T10:09:01.407</time></trkpt><trkpt lat="55.7840182" lon="37.7982696"><time>2020-12-20T10:09:06.370</time></trkpt><trkpt lat="55.7839651" lon="37.7982743"><time>2020-12-20T10:09:08.383</time></trkpt><trkpt lat="55.7838931" lon="37.7982543"><time>2020-12-20T10:09:10.390</time></trkpt><trkpt lat="55.7838245" lon="37.7982420"><time>2020-12-20T10:09:12.383</time></trkpt><trkpt lat="55.7837590" lon="37.7982131"><time>2020-12-20T10:09:14.410</time></trkpt><trkpt lat="55.7837086" lon="37.7982063"><time>2020-12-20T10:09:16.407</time></trkpt><trkpt lat="55.7836540" lon="37.7981950"><time>2020-12-20T10:09:18.387</time></trkpt><trkpt lat="55.7836078" lon="37.7981743"><time>2020-12-20T10:09:20.390</time></trkpt><trkpt lat="55.7835607" lon="37.7981820"><time>2020-12-20T10:09:25.373</time></trkpt><trkpt lat="55.7835013" lon="37.7982095"><time>2020-12-20T10:09:29.393</time></trkpt><trkpt lat="55.7834517" lon="37.7981659"><time>2020-12-20T10:09:33.390</time></trkpt><trkpt lat="55.7834131" lon="37.7980952"><time>2020-12-20T10:09:36.457</time></trkpt><trkpt lat="55.7833625" lon="37.7980531"><time>2020-12-20T10:09:39.407</time></trkpt><trkpt lat="55.7833177" lon="37.7980619"><time>2020-12-20T10:09:42.433</time></trkpt><trkpt lat="55.7832714" lon="37.7981041"><time>2020-12-20T10:09:46.423</time></trkpt><trkpt lat="55.7832275" lon="37.7981214"><time>2020-12-20T10:09:48.423</time></trkpt><trkpt lat="55.7831846" lon="37.7981562"><time>2020-12-20T10:09:50.413</time></trkpt><trkpt lat="55.7831416" lon="37.7982461"><time>2020-12-20T10:09:53.387</time></trkpt><trkpt lat="55.7831011" lon="37.7982852"><time>2020-12-20T10:09:55.410</time></trkpt><trkpt lat="55.7830397" lon="37.7983168"><time>2020-12-20T10:09:58.427</time></trkpt><trkpt lat="55.7829817" lon="37.7983729"><time>2020-12-20T10:10:01.400</time></trkpt><trkpt lat="55.7829429" lon="37.7984325"><time>2020-12-20T10:10:04.403</time></trkpt><trkpt lat="55.7820823" lon="37.8020326"><time>2020-12-20T10:12:53.820</time></trkpt><trkpt lat="55.7820455" lon="37.8020863"><time>2020-12-20T10:13:48.340</time></trkpt><trkpt lat="55.7820504" lon="37.8021836"><time>2020-12-20T10:14:15.370</time></trkpt><trkpt lat="55.7820194" lon="37.8022810"><time>2020-12-20T10:14:17.393</time></trkpt><trkpt lat="55.7819805" lon="37.8023871"><time>2020-12-20T10:14:19.400</time></trkpt><trkpt lat="55.7819433" lon="37.8024944"><time>2020-12-20T10:14:21.380</time></trkpt><trkpt lat="55.7819054" lon="37.8025876"><time>2020-12-20T10:14:23.403</time></trkpt><trkpt lat="55.7818714" lon="37.8026858"><time>2020-12-20T10:14:25.383</time></trkpt><trkpt lat="55.7818151" lon="37.8027473"><time>2020-12-20T10:14:27.400</time></trkpt><trkpt lat="55.7817423" lon="37.8028213"><time>2020-12-20T10:14:29.387</time></trkpt><trkpt lat="55.7817080" lon="37.8028750"><time>2020-12-20T10:14:30.377</time></trkpt><trkpt lat="55.7816762" lon="37.8029364"><time>2020-12-20T10:14:31.380</time></trkpt><trkpt lat="55.7816541" lon="37.8030819"><time>2020-12-20T10:14:33.357</time></trkpt><trkpt lat="55.7816695" lon="37.8032295"><time>2020-12-20T10:14:35.360</time></trkpt><trkpt lat="55.7816744" lon="37.8033115"><time>2020-12-20T10:14:36.397</time></trkpt><trkpt lat="55.7816769" lon="37.8033927"><time>2020-12-20T10:14:37.377</time></trkpt><trkpt lat="55.7816794" lon="37.8035335"><time>2020-12-20T10:14:39.397</time></trkpt><trkpt lat="55.7817117" lon="37.8036136"><time>2020-12-20T10:14:41.407</time></trkpt><trkpt lat="55.7817664" lon="37.8036914"><time>2020-12-20T10:14:43.373</time></trkpt><trkpt lat="55.7817982" lon="37.8038138"><time>2020-12-20T10:14:45.383</time></trkpt><trkpt lat="55.7818031" lon="37.8039004"><time>2020-12-20T10:14:46.380</time></trkpt><trkpt lat="55.7818053" lon="37.8039801"><time>2020-12-20T10:14:47.397</time></trkpt><trkpt lat="55.7818463" lon="37.8040914"><time>2020-12-20T10:14:49.383</time></trkpt><trkpt lat="55.7818937" lon="37.8041557"><time>2020-12-20T10:14:51.397</time></trkpt><trkpt lat="55.7819285" lon="37.8042840"><time>2020-12-20T10:14:54.397</time></trkpt><trkpt lat="55.7819690" lon="37.8044148"><time>2020-12-20T10:14:56.393</time></trkpt><trkpt lat="55.7820157" lon="37.8045205"><time>2020-12-20T10:14:58.390</time></trkpt><trkpt lat="55.7820651" lon="37.8046309"><time>2020-12-20T10:15:00.383</time></trkpt><trkpt lat="55.7820893" lon="37.8047455"><time>2020-12-20T10:15:02.380</time></trkpt><trkpt lat="55.7821085" lon="37.8048553"><time>2020-12-20T10:15:04.393</time></trkpt><trkpt lat="55.7821519" lon="37.8049401"><time>2020-12-20T10:15:06.373</time></trkpt><trkpt lat="55.7821762" lon="37.8050308"><time>2020-12-20T10:15:08.383</time></trkpt><trkpt lat="55.7822110" lon="37.8051277"><time>2020-12-20T10:15:10.380</time></trkpt><trkpt lat="55.7822581" lon="37.8052182"><time>2020-12-20T10:15:12.367</time></trkpt><trkpt lat="55.7823294" lon="37.8052392"><time>2020-12-20T10:15:14.387</time></trkpt><trkpt lat="55.7823838" lon="37.8052875"><time>2020-12-20T10:15:16.387</time></trkpt><trkpt lat="55.7824222" lon="37.8053751"><time>2020-12-20T10:15:18.390</time></trkpt><trkpt lat="55.7824413" lon="37.8054663"><time>2020-12-20T10:15:20.367</time></trkpt><trkpt lat="55.7824704" lon="37.8055572"><time>2020-12-20T10:15:22.380</time></trkpt><trkpt lat="55.7825050" lon="37.8056756"><time>2020-12-20T10:15:24.380</time></trkpt><trkpt lat="55.7825337" lon="37.8057757"><time>2020-12-20T10:15:26.393</time></trkpt><trkpt lat="55.7825605" lon="37.8058749"><time>2020-12-20T10:15:29.407</time></trkpt><trkpt lat="55.7825789" lon="37.8059686"><time>2020-12-20T10:15:31.380</time></trkpt><trkpt lat="55.7825990" lon="37.8060827"><time>2020-12-20T10:15:33.373</time></trkpt><trkpt lat="55.7826418" lon="37.8061688"><time>2020-12-20T10:15:35.387</time></trkpt><trkpt lat="55.7826944" lon="37.8062278"><time>2020-12-20T10:15:37.383</time></trkpt><trkpt lat="55.7827363" lon="37.8063142"><time>2020-12-20T10:15:39.407</time></trkpt><trkpt lat="55.7827666" lon="37.8063813"><time>2020-12-20T10:15:41.387</time></trkpt><trkpt lat="55.7827462" lon="37.8064606"><time>2020-12-20T10:15:44.377</time></trkpt><trkpt lat="55.7826992" lon="37.8065159"><time>2020-12-20T10:15:48.377</time></trkpt><trkpt lat="55.7826708" lon="37.8066012"><time>2020-12-20T10:15:53.390</time></trkpt><trkpt lat="55.7826225" lon="37.8066273"><time>2020-12-20T10:15:56.393</time></trkpt><trkpt lat="55.7826060" lon="37.8066436"><time>2020-12-20T10:16:13.330</time></trkpt><trkpt lat="55.7826623" lon="37.8065771"><time>2020-12-20T10:16:52.387</time></trkpt><trkpt lat="55.7826480" lon="37.8064909"><time>2020-12-20T10:16:58.377</time></trkpt><trkpt lat="55.7826144" lon="37.8064339"><time>2020-12-20T10:17:00.403</time></trkpt><trkpt lat="55.7825745" lon="37.8063574"><time>2020-12-20T10:17:02.397</time></trkpt><trkpt lat="55.7825325" lon="37.8062715"><time>2020-12-20T10:17:04.410</time></trkpt><trkpt lat="55.7825084" lon="37.8061676"><time>2020-12-20T10:17:06.420</time></trkpt><trkpt lat="55.7824893" lon="37.8060592"><time>2020-12-20T10:17:08.380</time></trkpt><trkpt lat="55.7824759" lon="37.8059738"><time>2020-12-20T10:17:10.393</time></trkpt><trkpt lat="55.7824529" lon="37.8058656"><time>2020-12-20T10:17:12.397</time></trkpt><trkpt lat="55.7824261" lon="37.8057367"><time>2020-12-20T10:17:14.397</time></trkpt><trkpt lat="55.7823999" lon="37.8056362"><time>2020-12-20T10:17:16.390</time></trkpt><trkpt lat="55.7823789" lon="37.8055411"><time>2020-12-20T10:17:18.390</time></trkpt><trkpt lat="55.7823541" lon="37.8054399"><time>2020-12-20T10:17:20.390</time></trkpt><trkpt lat="55.7823100" lon="37.8053707"><time>2020-12-20T10:17:22.387</time></trkpt><trkpt lat="55.7822519" lon="37.8053188"><time>2020-12-20T10:17:24.417</time></trkpt><trkpt lat="55.7822064" lon="37.8052150"><time>2020-12-20T10:17:26.397</time></trkpt><trkpt lat="55.7821644" lon="37.8050767"><time>2020-12-20T10:17:28.400</time></trkpt><trkpt lat="55.7821449" lon="37.8049952"><time>2020-12-20T10:17:29.390</time></trkpt><trkpt lat="55.7821064" lon="37.8048799"><time>2020-12-20T10:17:31.387</time></trkpt><trkpt lat="55.7820921" lon="37.8047519"><time>2020-12-20T10:17:33.390</time></trkpt><trkpt lat="55.7820544" lon="37.8046183"><time>2020-12-20T10:17:35.447</time></trkpt><trkpt lat="55.7819912" lon="37.8045157"><time>2020-12-20T10:17:37.390</time></trkpt><trkpt lat="55.7819441" lon="37.8044222"><time>2020-12-20T10:17:39.403</time></trkpt><trkpt lat="55.7819127" lon="37.8043313"><time>2020-12-20T10:17:41.403</time></trkpt><trkpt lat="55.7818930" lon="37.8042498"><time>2020-12-20T10:17:43.393</time></trkpt><trkpt lat="55.7818487" lon="37.8041686"><time>2020-12-20T10:17:45.413</time></trkpt><trkpt lat="55.7818271" lon="37.8040531"><time>2020-12-20T10:17:47.403</time></trkpt><trkpt lat="55.7818189" lon="37.8039247"><time>2020-12-20T10:17:49.410</time></trkpt><trkpt lat="55.7817788" lon="37.8038056"><time>2020-12-20T10:17:51.403</time></trkpt><trkpt lat="55.7817125" lon="37.8037063"><time>2020-12-20T10:17:53.357</time></trkpt><trkpt lat="55.7816830" lon="37.8036258"><time>2020-12-20T10:17:54.377</time></trkpt><trkpt lat="55.7816692" lon="37.8035035"><time>2020-12-20T10:17:56.383</time></trkpt><trkpt lat="55.7816591" lon="37.8033349"><time>2020-12-20T10:17:58.403</time></trkpt><trkpt lat="55.7816569" lon="37.8032538"><time>2020-12-20T10:17:59.393</time></trkpt><trkpt lat="55.7816371" lon="37.8031005"><time>2020-12-20T10:18:01.393</time></trkpt><trkpt lat="55.7816504" lon="37.8029818"><time>2020-12-20T10:18:03.403</time></trkpt><trkpt lat="55.7817186" lon="37.8028699"><time>2020-12-20T10:18:05.363</time></trkpt><trkpt lat="55.7817526" lon="37.8028043"><time>2020-12-20T10:18:06.377</time></trkpt><trkpt lat="55.7817881" lon="37.8027498"><time>2020-12-20T10:18:07.413</time></trkpt><trkpt lat="55.7818503" lon="37.8026558"><time>2020-12-20T10:18:09.397</time></trkpt><trkpt lat="55.7819015" lon="37.8025246"><time>2020-12-20T10:18:11.407</time></trkpt><trkpt lat="55.7819324" lon="37.8024561"><time>2020-12-20T10:18:12.397</time></trkpt><trkpt lat="55.7819826" lon="37.8023193"><time>2020-12-20T10:18:14.387</time></trkpt><trkpt lat="55.7820196" lon="37.8021869"><time>2020-12-20T10:18:16.393</time></trkpt><trkpt lat="55.7820530" lon="37.8021176"><time>2020-12-20T10:18:18.397</time></trkpt><trkpt lat="55.7820907" lon="37.8020641"><time>2020-12-20T10:18:34.383</time></trkpt><trkpt lat="55.7821011" lon="37.8019816"><time>2020-12-20T10:19:20.363</time></trkpt><trkpt lat="55.7821435" lon="37.8018933"><time>2020-12-20T10:19:23.390</time></trkpt><trkpt lat="55.7821777" lon="37.8018314"><time>2020-12-20T10:19:25.410</time></trkpt><trkpt lat="55.7822202" lon="37.8017758"><time>2020-12-20T10:19:27.363</time></trkpt><trkpt lat="55.7822647" lon="37.8017069"><time>2020-12-20T10:19:30.400</time></trkpt><trkpt lat="55.7823070" lon="37.8016683"><time>2020-12-20T10:19:32.390</time></trkpt><trkpt lat="55.7823485" lon="37.8016141"><time>2020-12-20T10:19:34.380</time></trkpt><trkpt lat="55.7823649" lon="37.8015356"><time>2020-12-20T10:19:39.403</time></trkpt><trkpt lat="55.7823852" lon="37.8014483"><time>2020-12-20T10:19:43.377</time></trkpt><trkpt lat="55.7824299" lon="37.8013653"><time>2020-12-20T10:19:46.400</time></trkpt><trkpt lat="55.7824469" lon="37.8012739"><time>2020-12-20T10:19:49.377</time></trkpt><trkpt lat="55.7824540" lon="37.8011827"><time>2020-12-20T10:19:53.390</time></trkpt><trkpt lat="55.7824883" lon="37.8011274"><time>2020-12-20T10:20:03.387</time></trkpt><trkpt lat="55.7825170" lon="37.8010643"><time>2020-12-20T10:20:09.370</time></trkpt><trkpt lat="55.7824753" lon="37.8010259"><time>2020-12-20T10:20:54.403</time></trkpt><trkpt lat="55.7824859" lon="37.8009280"><time>2020-12-20T10:21:04.383</time></trkpt><trkpt lat="55.7825220" lon="37.8008648"><time>2020-12-20T10:21:07.393</time></trkpt><trkpt lat="55.7825661" lon="37.8007817"><time>2020-12-20T10:21:10.397</time></trkpt><trkpt lat="55.7825991" lon="37.8007106"><time>2020-12-20T10:21:12.413</time></trkpt><trkpt lat="55.7826247" lon="37.8006111"><time>2020-12-20T10:21:14.407</time></trkpt><trkpt lat="55.7826343" lon="37.8005302"><time>2020-12-20T10:21:16.373</time></trkpt><trkpt lat="55.7826393" lon="37.8004505"><time>2020-12-20T10:21:21.390</time></trkpt><trkpt lat="55.7826560" lon="37.8003581"><time>2020-12-20T10:21:26.377</time></trkpt><trkpt lat="55.7826901" lon="37.8002513"><time>2020-12-20T10:21:29.373</time></trkpt><trkpt lat="55.7826957" lon="37.8001327"><time>2020-12-20T10:21:32.387</time></trkpt><trkpt lat="55.7826967" lon="37.8000420"><time>2020-12-20T10:21:34.397</time></trkpt><trkpt lat="55.7827023" lon="37.7999520"><time>2020-12-20T10:21:36.410</time></trkpt><trkpt lat="55.7827098" lon="37.7998533"><time>2020-12-20T10:21:38.390</time></trkpt><trkpt lat="55.7827118" lon="37.7997402"><time>2020-12-20T10:21:40.403</time></trkpt><trkpt lat="55.7827115" lon="37.7996184"><time>2020-12-20T10:21:42.403</time></trkpt><trkpt lat="55.7827016" lon="37.7995086"><time>2020-12-20T10:21:44.390</time></trkpt><trkpt lat="55.7826820" lon="37.7994104"><time>2020-12-20T10:21:46.397</time></trkpt><trkpt lat="55.7826636" lon="37.7993196"><time>2020-12-20T10:21:48.403</time></trkpt><trkpt lat="55.7826359" lon="37.7992367"><time>2020-12-20T10:21:50.387</time></trkpt><trkpt lat="55.7826101" lon="37.7991634"><time>2020-12-20T10:21:52.407</time></trkpt><trkpt lat="55.7825960" lon="37.7990792"><time>2020-12-20T10:21:54.410</time></trkpt><trkpt lat="55.7825777" lon="37.7989943"><time>2020-12-20T10:21:56.400</time></trkpt><trkpt lat="55.7825377" lon="37.7989071"><time>2020-12-20T10:21:58.377</time></trkpt><trkpt lat="55.7824905" lon="37.7988147"><time>2020-12-20T10:22:00.377</time></trkpt><trkpt lat="55.7824708" lon="37.7987364"><time>2020-12-20T10:22:02.393</time></trkpt><trkpt lat="55.7824681" lon="37.7986400"><time>2020-12-20T10:22:04.377</time></trkpt><trkpt lat="55.7824833" lon="37.7985364"><time>2020-12-20T10:22:06.393</time></trkpt><trkpt lat="55.7825051" lon="37.7984477"><time>2020-12-20T10:22:08.403</time></trkpt><trkpt lat="55.7824824" lon="37.7983403"><time>2020-12-20T10:22:10.377</time></trkpt><trkpt lat="55.7824455" lon="37.7982304"><time>2020-12-20T10:22:12.383</time></trkpt><trkpt lat="55.7824206" lon="37.7980979"><time>2020-12-20T10:22:14.400</time></trkpt><trkpt lat="55.7824018" lon="37.7979929"><time>2020-12-20T10:22:16.403</time></trkpt><trkpt lat="55.7823762" lon="37.7979007"><time>2020-12-20T10:22:18.400</time></trkpt><trkpt lat="55.7823573" lon="37.7978144"><time>2020-12-20T10:22:21.403</time></trkpt><trkpt lat="55.7823243" lon="37.7977222"><time>2020-12-20T10:22:24.413</time></trkpt><trkpt lat="55.7822948" lon="37.7976490"><time>2020-12-20T10:22:26.383</time></trkpt><trkpt lat="55.7822572" lon="37.7975742"><time>2020-12-20T10:22:28.373</time></trkpt><trkpt lat="55.7822141" lon="37.7974984"><time>2020-12-20T10:22:30.377</time></trkpt><trkpt lat="55.7821625" lon="37.7974215"><time>2020-12-20T10:22:32.407</time></trkpt><trkpt lat="55.7821124" lon="37.7973662"><time>2020-12-20T10:22:34.363</time></trkpt><trkpt lat="55.7820502" lon="37.7973361"><time>2020-12-20T10:22:36.387</time></trkpt><trkpt lat="55.7819888" lon="37.7972884"><time>2020-12-20T10:22:38.390</time></trkpt><trkpt lat="55.7819358" lon="37.7972482"><time>2020-12-20T10:22:40.383</time></trkpt><trkpt lat="55.7818866" lon="37.7971771"><time>2020-12-20T10:22:42.387</time></trkpt><trkpt lat="55.7818380" lon="37.7971244"><time>2020-12-20T10:22:44.390</time></trkpt><trkpt lat="55.7817969" lon="37.7970609"><time>2020-12-20T10:22:46.393</time></trkpt><trkpt lat="55.7817871" lon="37.7969783"><time>2020-12-20T10:22:48.380</time></trkpt><trkpt lat="55.7818082" lon="37.7968957"><time>2020-12-20T10:22:50.380</time></trkpt><trkpt lat="55.7818243" lon="37.7967928"><time>2020-12-20T10:22:52.390</time></trkpt><trkpt lat="55.7818206" lon="37.7966835"><time>2020-12-20T10:22:54.403</time></trkpt><trkpt lat="55.7818121" lon="37.7965949"><time>2020-12-20T10:22:56.377</time></trkpt><trkpt lat="55.7817878" lon="37.7965246"><time>2020-12-20T10:22:58.373</time></trkpt><trkpt lat="55.7818018" lon="37.7964016"><time>2020-12-20T10:23:01.390</time></trkpt><trkpt lat="55.7818311" lon="37.7963185"><time>2020-12-20T10:23:03.390</time></trkpt><trkpt lat="55.7818302" lon="37.7962357"><time>2020-12-20T10:23:05.383</time></trkpt><trkpt lat="55.7818453" lon="37.7961499"><time>2020-12-20T10:23:07.437</time></trkpt><trkpt lat="55.7818805" lon="37.7960485"><time>2020-12-20T10:23:09.407</time></trkpt><trkpt lat="55.7819090" lon="37.7959521"><time>2020-12-20T10:23:11.403</time></trkpt><trkpt lat="55.7819332" lon="37.7958611"><time>2020-12-20T10:23:13.397</time></trkpt><trkpt lat="55.7819361" lon="37.7957766"><time>2020-12-20T10:23:15.397</time></trkpt><trkpt lat="55.7819082" lon="37.7957070"><time>2020-12-20T10:23:17.377</time></trkpt><trkpt lat="55.7818689" lon="37.7956449"><time>2020-12-20T10:23:19.380</time></trkpt><trkpt lat="55.7818231" lon="37.7955960"><time>2020-12-20T10:23:21.417</time></trkpt><trkpt lat="55.7817850" lon="37.7955534"><time>2020-12-20T10:23:23.383</time></trkpt><trkpt lat="55.7817704" lon="37.7954690"><time>2020-12-20T10:23:25.380</time></trkpt><trkpt lat="55.7817980" lon="37.7953972"><time>2020-12-20T10:23:27.397</time></trkpt><trkpt lat="55.7818364" lon="37.7953443"><time>2020-12-20T10:23:29.383</time></trkpt><trkpt lat="55.7818465" lon="37.7952398"><time>2020-12-20T10:23:32.393</time></trkpt><trkpt lat="55.7818339" lon="37.7951424"><time>2020-12-20T10:23:34.383</time></trkpt><trkpt lat="55.7818140" lon="37.7950357"><time>2020-12-20T10:23:36.387</time></trkpt><trkpt lat="55.7817868" lon="37.7949268"><time>2020-12-20T10:23:38.407</time></trkpt><trkpt lat="55.7817583" lon="37.7948422"><time>2020-12-20T10:23:40.377</time></trkpt><trkpt lat="55.7817456" lon="37.7947519"><time>2020-12-20T10:23:42.397</time></trkpt><trkpt lat="55.7817386" lon="37.7946677"><time>2020-12-20T10:24:12.387</time></trkpt><trkpt lat="55.7817563" lon="37.7945858"><time>2020-12-20T10:24:15.397</time></trkpt><trkpt lat="55.7817850" lon="37.7945216"><time>2020-12-20T10:24:17.393</time></trkpt><trkpt lat="55.7818148" lon="37.7944488"><time>2020-12-20T10:24:19.390</time></trkpt><trkpt lat="55.7818138" lon="37.7943663"><time>2020-12-20T10:24:21.387</time></trkpt><trkpt lat="55.7818205" lon="37.7942850"><time>2020-12-20T10:24:23.370</time></trkpt><trkpt lat="55.7818117" lon="37.7942026"><time>2020-12-20T10:24:26.383</time></trkpt><trkpt lat="55.7817834" lon="37.7941341"><time>2020-12-20T10:24:28.367</time></trkpt><trkpt lat="55.7817526" lon="37.7940669"><time>2020-12-20T10:24:30.377</time></trkpt><trkpt lat="55.7817273" lon="37.7939947"><time>2020-12-20T10:24:32.387</time></trkpt><trkpt lat="55.7817149" lon="37.7938879"><time>2020-12-20T10:24:34.387</time></trkpt><trkpt lat="55.7816831" lon="37.7938163"><time>2020-12-20T10:24:36.370</time></trkpt><trkpt lat="55.7816667" lon="37.7937254"><time>2020-12-20T10:24:42.370</time></trkpt><trkpt lat="55.7816810" lon="37.7937274"><time>2020-12-20T10:24:53.770</time></trkpt><trkpt lat="55.7812580" lon="37.7823245"><time>2020-12-20T10:37:16.793</time></trkpt><trkpt lat="55.7812578" lon="37.7823436"><time>2020-12-20T10:37:20.483</time></trkpt><trkpt lat="55.7813147" lon="37.7823189"><time>2020-12-20T10:37:44.383</time></trkpt><trkpt lat="55.7813643" lon="37.7822673"><time>2020-12-20T10:37:48.393</time></trkpt><trkpt lat="55.7813994" lon="37.7822043"><time>2020-12-20T10:37:54.373</time></trkpt><trkpt lat="55.7814268" lon="37.7821328"><time>2020-12-20T10:38:24.400</time></trkpt><trkpt lat="55.7814353" lon="37.7820387"><time>2020-12-20T10:38:30.400</time></trkpt><trkpt lat="55.7814741" lon="37.7819548"><time>2020-12-20T10:38:33.383</time></trkpt><trkpt lat="55.7815189" lon="37.7818915"><time>2020-12-20T10:38:36.397</time></trkpt><trkpt lat="55.7815646" lon="37.7818389"><time>2020-12-20T10:39:06.400</time></trkpt><trkpt lat="55.7816121" lon="37.7817744"><time>2020-12-20T10:39:09.407</time></trkpt><trkpt lat="55.7816597" lon="37.7817373"><time>2020-12-20T10:39:11.397</time></trkpt><trkpt lat="55.7817018" lon="37.7816580"><time>2020-12-20T10:39:14.413</time></trkpt><trkpt lat="55.7817241" lon="37.7815685"><time>2020-12-20T10:39:21.373</time></trkpt><trkpt lat="55.7817640" lon="37.7814824"><time>2020-12-20T10:39:24.390</time></trkpt><trkpt lat="55.7818091" lon="37.7814073"><time>2020-12-20T10:39:26.393</time></trkpt><trkpt lat="55.7818414" lon="37.7813286"><time>2020-12-20T10:39:28.407</time></trkpt><trkpt lat="55.7818852" lon="37.7812368"><time>2020-12-20T10:39:30.393</time></trkpt><trkpt lat="55.7819270" lon="37.7811458"><time>2020-12-20T10:39:32.387</time></trkpt><trkpt lat="55.7819725" lon="37.7810677"><time>2020-12-20T10:39:34.390</time></trkpt><trkpt lat="55.7820161" lon="37.7809944"><time>2020-12-20T10:39:36.407</time></trkpt><trkpt lat="55.7820532" lon="37.7809183"><time>2020-12-20T10:39:38.387</time></trkpt><trkpt lat="55.7820771" lon="37.7808313"><time>2020-12-20T10:39:40.377</time></trkpt><trkpt lat="55.7821032" lon="37.7807443"><time>2020-12-20T10:39:42.390</time></trkpt><trkpt lat="55.7821395" lon="37.7806801"><time>2020-12-20T10:39:44.397</time></trkpt><trkpt lat="55.7821823" lon="37.7806047"><time>2020-12-20T10:39:47.383</time></trkpt><trkpt lat="55.7822271" lon="37.7805241"><time>2020-12-20T10:39:50.417</time></trkpt><trkpt lat="55.7822635" lon="37.7804618"><time>2020-12-20T10:39:52.390</time></trkpt><trkpt lat="55.7823003" lon="37.7804064"><time>2020-12-20T10:39:54.387</time></trkpt><trkpt lat="55.7823335" lon="37.7803363"><time>2020-12-20T10:39:57.400</time></trkpt><trkpt lat="55.7823689" lon="37.7802635"><time>2020-12-20T10:40:00.413</time></trkpt><trkpt lat="55.7824261" lon="37.7801997"><time>2020-12-20T10:40:03.387</time></trkpt><trkpt lat="55.7824718" lon="37.7801618"><time>2020-12-20T10:40:05.393</time></trkpt><trkpt lat="55.7825169" lon="37.7801090"><time>2020-12-20T10:40:07.380</time></trkpt><trkpt lat="55.7825651" lon="37.7800415"><time>2020-12-20T10:40:10.407</time></trkpt><trkpt lat="55.7826169" lon="37.7799632"><time>2020-12-20T10:40:13.403</time></trkpt><trkpt lat="55.7826653" lon="37.7799251"><time>2020-12-20T10:40:15.393</time></trkpt><trkpt lat="55.7827135" lon="37.7798662"><time>2020-12-20T10:40:18.397</time></trkpt><trkpt lat="55.7827277" lon="37.7797859"><time>2020-12-20T10:40:21.363</time></trkpt><trkpt lat="55.7827688" lon="37.7797381"><time>2020-12-20T10:40:23.380</time></trkpt><trkpt lat="55.7828184" lon="37.7796988"><time>2020-12-20T10:40:25.367</time></trkpt><trkpt lat="55.7828682" lon="37.7796595"><time>2020-12-20T10:40:27.397</time></trkpt><trkpt lat="55.7829187" lon="37.7796036"><time>2020-12-20T10:40:29.400</time></trkpt><trkpt lat="55.7829544" lon="37.7795326"><time>2020-12-20T10:40:32.387</time></trkpt><trkpt lat="55.7829886" lon="37.7794664"><time>2020-12-20T10:40:36.387</time></trkpt><trkpt lat="55.7830300" lon="37.7794282"><time>2020-12-20T10:41:00.383</time></trkpt><trkpt lat="55.7830477" lon="37.7793492"><time>2020-12-20T10:41:02.387</time></trkpt><trkpt lat="55.7830827" lon="37.7792609"><time>2020-12-20T10:41:04.397</time></trkpt><trkpt lat="55.7831274" lon="37.7791519"><time>2020-12-20T10:41:06.417</time></trkpt><trkpt lat="55.7831761" lon="37.7790623"><time>2020-12-20T10:41:08.403</time></trkpt><trkpt lat="55.7832198" lon="37.7789401"><time>2020-12-20T10:41:10.390</time></trkpt><trkpt lat="55.7832737" lon="37.7788310"><time>2020-12-20T10:41:12.393</time></trkpt><trkpt lat="55.7833297" lon="37.7787642"><time>2020-12-20T10:41:14.413</time></trkpt><trkpt lat="55.7833854" lon="37.7787010"><time>2020-12-20T10:41:16.390</time></trkpt><trkpt lat="55.7834379" lon="37.7786256"><time>2020-12-20T10:41:18.383</time></trkpt><trkpt lat="55.7834792" lon="37.7785305"><time>2020-12-20T10:41:20.410</time></trkpt><trkpt lat="55.7835147" lon="37.7784419"><time>2020-12-20T10:41:22.393</time></trkpt><trkpt lat="55.7835562" lon="37.7783945"><time>2020-12-20T10:41:24.420</time></trkpt><trkpt lat="55.7836136" lon="37.7783798"><time>2020-12-20T10:41:27.383</time></trkpt><trkpt lat="55.7836428" lon="37.7783131"><time>2020-12-20T10:41:29.373</time></trkpt><trkpt lat="55.7836728" lon="37.7782303"><time>2020-12-20T10:41:31.403</time></trkpt><trkpt lat="55.7837142" lon="37.7781489"><time>2020-12-20T10:41:33.397</time></trkpt><trkpt lat="55.7837770" lon="37.7781000"><time>2020-12-20T10:41:35.380</time></trkpt><trkpt lat="55.7838254" lon="37.7780348"><time>2020-12-20T10:41:37.387</time></trkpt><trkpt lat="55.7838330" lon="37.7779523"><time>2020-12-20T10:41:39.387</time></trkpt><trkpt lat="55.7838492" lon="37.7778658"><time>2020-12-20T10:41:42.367</time></trkpt><trkpt lat="55.7839197" lon="37.7778574"><time>2020-12-20T10:41:45.373</time></trkpt><trkpt lat="55.7839666" lon="37.7778136"><time>2020-12-20T10:41:47.377</time></trkpt><trkpt lat="55.7840140" lon="37.7777527"><time>2020-12-20T10:41:49.407</time></trkpt><trkpt lat="55.7840663" lon="37.7776588"><time>2020-12-20T10:41:52.397</time></trkpt><trkpt lat="55.7841041" lon="37.7776053"><time>2020-12-20T10:41:54.410</time></trkpt><trkpt lat="55.7841695" lon="37.7775864"><time>2020-12-20T10:41:57.390</time></trkpt><trkpt lat="55.7842179" lon="37.7776118"><time>2020-12-20T10:41:59.380</time></trkpt><trkpt lat="55.7842659" lon="37.7776379"><time>2020-12-20T10:42:01.383</time></trkpt><trkpt lat="55.7842583" lon="37.7776697"><time>2020-12-20T10:42:29.927</time></trkpt><trkpt lat="55.7843080" lon="37.7776072"><time>2020-12-20T10:42:41.390</time></trkpt><trkpt lat="55.7851184" lon="37.7726915"><time>2020-12-20T10:50:24.153</time></trkpt><trkpt lat="55.7851466" lon="37.7727639"><time>2020-12-20T10:50:41.407</time></trkpt><trkpt lat="55.7849660" lon="37.7678229"><time>2020-12-20T10:59:15.850</time></trkpt><trkpt lat="55.7849114" lon="37.7678717"><time>2020-12-20T10:59:16.477</time></trkpt><trkpt lat="55.7848604" lon="37.7679147"><time>2020-12-20T10:59:17.383</time></trkpt><trkpt lat="55.7848177" lon="37.7679567"><time>2020-12-20T10:59:18.373</time></trkpt><trkpt lat="55.7847740" lon="37.7679948"><time>2020-12-20T10:59:19.387</time></trkpt><trkpt lat="55.7846864" lon="37.7680321"><time>2020-12-20T10:59:21.380</time></trkpt><trkpt lat="55.7846412" lon="37.7680594"><time>2020-12-20T10:59:22.400</time></trkpt><trkpt lat="55.7845579" lon="37.7681327"><time>2020-12-20T10:59:24.410</time></trkpt><trkpt lat="55.7845186" lon="37.7681758"><time>2020-12-20T10:59:25.397</time></trkpt><trkpt lat="55.7844451" lon="37.7682283"><time>2020-12-20T10:59:27.377</time></trkpt><trkpt lat="55.7843752" lon="37.7682447"><time>2020-12-20T10:59:29.427</time></trkpt><trkpt lat="55.7842984" lon="37.7682799"><time>2020-12-20T10:59:31.407</time></trkpt><trkpt lat="55.7842326" lon="37.7683087"><time>2020-12-20T10:59:33.397</time></trkpt><trkpt lat="55.7841730" lon="37.7683524"><time>2020-12-20T10:59:35.387</time></trkpt><trkpt lat="55.7841256" lon="37.7683541"><time>2020-12-20T10:59:37.427</time></trkpt><trkpt lat="55.7840816" lon="37.7682796"><time>2020-12-20T10:59:40.390</time></trkpt><trkpt lat="55.7840383" lon="37.7682371"><time>2020-12-20T10:59:42.417</time></trkpt><trkpt lat="55.7839829" lon="37.7682105"><time>2020-12-20T10:59:44.397</time></trkpt><trkpt lat="55.7839207" lon="37.7682189"><time>2020-12-20T10:59:46.407</time></trkpt><trkpt lat="55.7838518" lon="37.7682281"><time>2020-12-20T10:59:48.387</time></trkpt><trkpt lat="55.7837855" lon="37.7682084"><time>2020-12-20T10:59:50.387</time></trkpt><trkpt lat="55.7837257" lon="37.7681689"><time>2020-12-20T10:59:52.410</time></trkpt><trkpt lat="55.7836736" lon="37.7681516"><time>2020-12-20T10:59:54.403</time></trkpt><trkpt lat="55.7836280" lon="37.7681690"><time>2020-12-20T10:59:57.387</time></trkpt><trkpt lat="55.7835796" lon="37.7681683"><time>2020-12-20T11:00:01.387</time></trkpt><trkpt lat="55.7835337" lon="37.7681936"><time>2020-12-20T11:00:05.367</time></trkpt><trkpt lat="55.7834893" lon="37.7682291"><time>2020-12-20T11:00:09.387</time></trkpt><trkpt lat="55.7834446" lon="37.7682607"><time>2020-12-20T11:00:12.387</time></trkpt><trkpt lat="55.7833998" lon="37.7683078"><time>2020-12-20T11:00:17.387</time></trkpt><trkpt lat="55.7833463" lon="37.7683353"><time>2020-12-20T11:00:20.390</time></trkpt><trkpt lat="55.7832993" lon="37.7683235"><time>2020-12-20T11:00:22.397</time></trkpt><trkpt lat="55.7832542" lon="37.7682980"><time>2020-12-20T11:00:24.390</time></trkpt><trkpt lat="55.7832021" lon="37.7682669"><time>2020-12-20T11:00:27.387</time></trkpt><trkpt lat="55.7831550" lon="37.7682612"><time>2020-12-20T11:00:30.393</time></trkpt><trkpt lat="55.7830954" lon="37.7682996"><time>2020-12-20T11:00:34.400</time></trkpt><trkpt lat="55.7830456" lon="37.7683058"><time>2020-12-20T11:00:36.393</time></trkpt><trkpt lat="55.7829964" lon="37.7683001"><time>2020-12-20T11:00:38.400</time></trkpt><trkpt lat="55.7829386" lon="37.7683029"><time>2020-12-20T11:00:40.387</time></trkpt><trkpt lat="55.7828746" lon="37.7682944"><time>2020-12-20T11:00:42.390</time></trkpt><trkpt lat="55.7828032" lon="37.7682686"><time>2020-12-20T11:00:44.367</time></trkpt><trkpt lat="55.7827239" lon="37.7682498"><time>2020-12-20T11:00:46.410</time></trkpt><trkpt lat="55.7826445" lon="37.7682490"><time>2020-12-20T11:00:48.390</time></trkpt><trkpt lat="55.7825711" lon="37.7682323"><time>2020-12-20T11:00:50.387</time></trkpt><trkpt lat="55.7825135" lon="37.7681540"><time>2020-12-20T11:00:52.403</time></trkpt><trkpt lat="55.7824729" lon="37.7680915"><time>2020-12-20T11:00:54.400</time></trkpt><trkpt lat="55.7824184" lon="37.7680363"><time>2020-12-20T11:00:56.393</time></trkpt><trkpt lat="55.7823565" lon="37.7679982"><time>2020-12-20T11:00:58.403</time></trkpt><trkpt lat="55.7823037" lon="37.7679775"><time>2020-12-20T11:01:00.403</time></trkpt><trkpt lat="55.7822581" lon="37.7679271"><time>2020-12-20T11:01:02.387</time></trkpt><trkpt lat="55.7822095" lon="37.7678677"><time>2020-12-20T11:01:04.420</time></trkpt><trkpt lat="55.7821777" lon="37.7677686"><time>2020-12-20T11:01:06.380</time></trkpt><trkpt lat="55.7821463" lon="37.7676899"><time>2020-12-20T11:01:08.403</time></trkpt><trkpt lat="55.7821154" lon="37.7676161"><time>2020-12-20T11:01:10.397</time></trkpt><trkpt lat="55.7820779" lon="37.7675426"><time>2020-12-20T11:01:12.380</time></trkpt><trkpt lat="55.7820173" lon="37.7674985"><time>2020-12-20T11:01:15.383</time></trkpt><trkpt lat="55.7819662" lon="37.7674678"><time>2020-12-20T11:01:18.380</time></trkpt><trkpt lat="55.7819292" lon="37.7674188"><time>2020-12-20T11:01:21.370</time></trkpt></trkseg></trk></gpx>